<?xml version='1.0' encoding='UTF-8'?><gpx version="1.1" creator="JPX - https://github.com/jenetics/jpx" xmlns="http://www.topografix.com/GPX/1/1"><trk><trkseg><trkpt lat="38.242312" lon="15.4525664"><ele>31.8</ele><time>2026-03-26T08:18:51.232Z</time></trkpt><trkpt lat="38.2422261" lon="15.4525827"><ele>32.6</ele><time>2026-03-26T08:18:53.232Z</time></trkpt><trkpt lat="38.2421205" lon="15.4526121"><ele>33.4</ele><time>2026-03-26T08:18:55.231Z</time></trkpt><trkpt lat="38.2420296" lon="15.4526355"><ele>34.2</ele><time>2026-03-26T08:18:57.232Z</time></trkpt><trkpt lat="38.2419605" lon="15.452652"><ele>35.0</ele><time>2026-03-26T08:18:58.232Z</time></trkpt><trkpt lat="38.2418491" lon="15.4526601"><ele>35.0</ele><time>2026-03-26T08:18:59.232Z</time></trkpt><trkpt lat="38.2417242" lon="15.4526983"><ele>35.0</ele><time>2026-03-26T08:19:00.232Z</time></trkpt><trkpt lat="38.241614" lon="15.45273"><ele>35.0</ele><time>2026-03-26T08:19:01.232Z</time></trkpt><trkpt lat="38.2415018" lon="15.4527429"><ele>35.0</ele><time>2026-03-26T08:19:02.232Z</time></trkpt><trkpt lat="38.2413868" lon="15.4527607"><ele>35.75</ele><time>2026-03-26T08:19:03.232Z</time></trkpt><trkpt lat="38.2412691" lon="15.4527855"><ele>36.5</ele><time>2026-03-26T08:19:04.232Z</time></trkpt><trkpt lat="38.2411419" lon="15.4528219"><ele>37.25</ele><time>2026-03-26T08:19:05.232Z</time></trkpt><trkpt lat="38.2410293" lon="15.4528713"><ele>38.0</ele><time>2026-03-26T08:19:06.231Z</time></trkpt><trkpt lat="38.2409289" lon="15.4529235"><ele>38.0</ele><time>2026-03-26T08:19:07.232Z</time></trkpt><trkpt lat="38.240838" lon="15.4529763"><ele>38.0</ele><time>2026-03-26T08:19:08.232Z</time></trkpt><trkpt lat="38.2407586" lon="15.4530288"><ele>38.0</ele><time>2026-03-26T08:19:09.232Z</time></trkpt><trkpt lat="38.2406924" lon="15.4530644"><ele>38.0</ele><time>2026-03-26T08:19:10.232Z</time></trkpt><trkpt lat="38.2406068" lon="15.453109"><ele>38.0</ele><time>2026-03-26T08:19:12.232Z</time></trkpt><trkpt lat="38.2405398" lon="15.4531303"><ele>38.0</ele><time>2026-03-26T08:19:40.232Z</time></trkpt><trkpt lat="38.2404431" lon="15.4531628"><ele>38.8</ele><time>2026-03-26T08:19:42.232Z</time></trkpt><trkpt lat="38.2403773" lon="15.4531848"><ele>39.599999999999994</ele><time>2026-03-26T08:19:43.232Z</time></trkpt><trkpt lat="38.2402972" lon="15.4532063"><ele>40.400000000000006</ele><time>2026-03-26T08:19:44.232Z</time></trkpt><trkpt lat="38.2402019" lon="15.453224"><ele>41.2</ele><time>2026-03-26T08:19:45.231Z</time></trkpt><trkpt lat="38.2400976" lon="15.4532351"><ele>42.0</ele><time>2026-03-26T08:19:46.232Z</time></trkpt><trkpt lat="38.2399899" lon="15.4532406"><ele>42.0</ele><time>2026-03-26T08:19:47.232Z</time></trkpt><trkpt lat="38.2398894" lon="15.4532274"><ele>42.0</ele><time>2026-03-26T08:19:48.232Z</time></trkpt><trkpt lat="38.2397934" lon="15.453195"><ele>42.0</ele><time>2026-03-26T08:19:49.232Z</time></trkpt><trkpt lat="38.239693" lon="15.4531462"><ele>42.0</ele><time>2026-03-26T08:19:50.232Z</time></trkpt><trkpt lat="38.2395966" lon="15.4530876"><ele>42.0</ele><time>2026-03-26T08:19:51.232Z</time></trkpt><trkpt lat="38.2394906" lon="15.4529991"><ele>44.8</ele><time>2026-03-26T08:19:52.232Z</time></trkpt><trkpt lat="38.2393937" lon="15.4529505"><ele>47.6</ele><time>2026-03-26T08:19:53.232Z</time></trkpt><trkpt lat="38.2393051" lon="15.4529069"><ele>50.39999999999999</ele><time>2026-03-26T08:19:54.231Z</time></trkpt><trkpt lat="38.2392097" lon="15.4528614"><ele>53.199999999999996</ele><time>2026-03-26T08:19:55.232Z</time></trkpt><trkpt lat="38.2391167" lon="15.4528593"><ele>56.0</ele><time>2026-03-26T08:19:56.232Z</time></trkpt><trkpt lat="38.2390355" lon="15.4528597"><ele>55.333333333333336</ele><time>2026-03-26T08:19:57.232Z</time></trkpt><trkpt lat="38.2389489" lon="15.4528706"><ele>54.66666666666667</ele><time>2026-03-26T08:19:58.232Z</time></trkpt><trkpt lat="38.2388657" lon="15.4528969"><ele>54.0</ele><time>2026-03-26T08:19:59.232Z</time></trkpt><trkpt lat="38.2387875" lon="15.4529405"><ele>53.33333333333333</ele><time>2026-03-26T08:20:00.232Z</time></trkpt><trkpt lat="38.2387135" lon="15.4530026"><ele>52.666666666666664</ele><time>2026-03-26T08:20:01.232Z</time></trkpt><trkpt lat="38.2386473" lon="15.4530692"><ele>52.0</ele><time>2026-03-26T08:20:02.232Z</time></trkpt><trkpt lat="38.2385888" lon="15.4531333"><ele>50.83333333333333</ele><time>2026-03-26T08:20:03.232Z</time></trkpt><trkpt lat="38.2385294" lon="15.4532055"><ele>49.666666666666664</ele><time>2026-03-26T08:20:04.231Z</time></trkpt><trkpt lat="38.2384674" lon="15.4532748"><ele>48.5</ele><time>2026-03-26T08:20:05.232Z</time></trkpt><trkpt lat="38.2384094" lon="15.4533377"><ele>47.33333333333333</ele><time>2026-03-26T08:20:06.231Z</time></trkpt><trkpt lat="38.2383503" lon="15.4533953"><ele>46.166666666666664</ele><time>2026-03-26T08:20:07.232Z</time></trkpt><trkpt lat="38.2382769" lon="15.4534642"><ele>45.0</ele><time>2026-03-26T08:20:08.232Z</time></trkpt><trkpt lat="38.2382041" lon="15.453531"><ele>45.8</ele><time>2026-03-26T08:20:09.232Z</time></trkpt><trkpt lat="38.2381238" lon="15.4536048"><ele>46.6</ele><time>2026-03-26T08:20:10.232Z</time></trkpt><trkpt lat="38.2380406" lon="15.4536803"><ele>47.400000000000006</ele><time>2026-03-26T08:20:11.232Z</time></trkpt><trkpt lat="38.2379591" lon="15.4537635"><ele>48.2</ele><time>2026-03-26T08:20:12.232Z</time></trkpt><trkpt lat="38.2378834" lon="15.4538521"><ele>49.0</ele><time>2026-03-26T08:20:13.232Z</time></trkpt><trkpt lat="38.2378088" lon="15.4539417"><ele>49.0</ele><time>2026-03-26T08:20:14.232Z</time></trkpt><trkpt lat="38.2377284" lon="15.4540217"><ele>49.0</ele><time>2026-03-26T08:20:15.231Z</time></trkpt><trkpt lat="38.2376446" lon="15.4540915"><ele>49.0</ele><time>2026-03-26T08:20:16.232Z</time></trkpt><trkpt lat="38.2375623" lon="15.4541624"><ele>49.0</ele><time>2026-03-26T08:20:17.232Z</time></trkpt><trkpt lat="38.2374764" lon="15.4542374"><ele>49.0</ele><time>2026-03-26T08:20:18.232Z</time></trkpt><trkpt lat="38.2373948" lon="15.4543257"><ele>49.0</ele><time>2026-03-26T08:20:19.232Z</time></trkpt><trkpt lat="38.2373217" lon="15.4544149"><ele>49.0</ele><time>2026-03-26T08:20:20.232Z</time></trkpt><trkpt lat="38.237246" lon="15.4544989"><ele>49.0</ele><time>2026-03-26T08:20:21.231Z</time></trkpt><trkpt lat="38.2371627" lon="15.4545842"><ele>49.0</ele><time>2026-03-26T08:20:22.232Z</time></trkpt><trkpt lat="38.2370786" lon="15.4546748"><ele>49.0</ele><time>2026-03-26T08:20:23.231Z</time></trkpt><trkpt lat="38.2369836" lon="15.4547384"><ele>50.0</ele><time>2026-03-26T08:20:24.232Z</time></trkpt><trkpt lat="38.2368906" lon="15.4548108"><ele>51.0</ele><time>2026-03-26T08:20:25.232Z</time></trkpt><trkpt lat="38.2367964" lon="15.4548907"><ele>52.0</ele><time>2026-03-26T08:20:26.232Z</time></trkpt><trkpt lat="38.2367045" lon="15.4549837"><ele>53.0</ele><time>2026-03-26T08:20:27.232Z</time></trkpt><trkpt lat="38.2366145" lon="15.45508"><ele>53.0</ele><time>2026-03-26T08:20:28.233Z</time></trkpt><trkpt lat="38.2365267" lon="15.455179"><ele>53.0</ele><time>2026-03-26T08:20:29.232Z</time></trkpt><trkpt lat="38.2364343" lon="15.4552704"><ele>53.0</ele><time>2026-03-26T08:20:30.233Z</time></trkpt><trkpt lat="38.2363388" lon="15.4553653"><ele>53.0</ele><time>2026-03-26T08:20:31.234Z</time></trkpt><trkpt lat="38.2362469" lon="15.4554576"><ele>54.75</ele><time>2026-03-26T08:20:32.233Z</time></trkpt><trkpt lat="38.2361597" lon="15.4555504"><ele>56.5</ele><time>2026-03-26T08:20:33.233Z</time></trkpt><trkpt lat="38.2360713" lon="15.4556504"><ele>58.25</ele><time>2026-03-26T08:20:34.232Z</time></trkpt><trkpt lat="38.2359796" lon="15.4557506"><ele>60.0</ele><time>2026-03-26T08:20:35.233Z</time></trkpt><trkpt lat="38.2358913" lon="15.4558444"><ele>60.0</ele><time>2026-03-26T08:20:36.232Z</time></trkpt><trkpt lat="38.2358029" lon="15.4559494"><ele>60.0</ele><time>2026-03-26T08:20:37.233Z</time></trkpt><trkpt lat="38.2357137" lon="15.4560603"><ele>60.0</ele><time>2026-03-26T08:20:38.233Z</time></trkpt><trkpt lat="38.2356217" lon="15.4561564"><ele>60.0</ele><time>2026-03-26T08:20:39.233Z</time></trkpt><trkpt lat="38.2355244" lon="15.4562583"><ele>60.0</ele><time>2026-03-26T08:20:40.233Z</time></trkpt><trkpt lat="38.2354177" lon="15.4563297"><ele>60.0</ele><time>2026-03-26T08:20:41.232Z</time></trkpt><trkpt lat="38.2353129" lon="15.4564017"><ele>60.0</ele><time>2026-03-26T08:20:42.233Z</time></trkpt><trkpt lat="38.2351992" lon="15.4564557"><ele>60.0</ele><time>2026-03-26T08:20:43.233Z</time></trkpt><trkpt lat="38.2350875" lon="15.4565077"><ele>60.0</ele><time>2026-03-26T08:20:44.233Z</time></trkpt><trkpt lat="38.2349753" lon="15.4565528"><ele>60.0</ele><time>2026-03-26T08:20:45.233Z</time></trkpt><trkpt lat="38.234859" lon="15.45659"><ele>60.0</ele><time>2026-03-26T08:20:46.233Z</time></trkpt><trkpt lat="38.2347518" lon="15.4566282"><ele>60.0</ele><time>2026-03-26T08:20:47.233Z</time></trkpt><trkpt lat="38.2346485" lon="15.4566615"><ele>62.0</ele><time>2026-03-26T08:20:48.233Z</time></trkpt><trkpt lat="38.2345492" lon="15.4567149"><ele>64.0</ele><time>2026-03-26T08:20:49.233Z</time></trkpt><trkpt lat="38.2344539" lon="15.4567932"><ele>66.0</ele><time>2026-03-26T08:20:50.233Z</time></trkpt><trkpt lat="38.2343621" lon="15.4568581"><ele>68.0</ele><time>2026-03-26T08:20:51.233Z</time></trkpt><trkpt lat="38.234279" lon="15.4569388"><ele>70.0</ele><time>2026-03-26T08:20:52.233Z</time></trkpt><trkpt lat="38.2342083" lon="15.4570456"><ele>71.0</ele><time>2026-03-26T08:20:53.233Z</time></trkpt><trkpt lat="38.234142" lon="15.4571612"><ele>72.0</ele><time>2026-03-26T08:20:54.234Z</time></trkpt><trkpt lat="38.2340772" lon="15.4572829"><ele>73.0</ele><time>2026-03-26T08:20:55.233Z</time></trkpt><trkpt lat="38.2339992" lon="15.4573804"><ele>74.0</ele><time>2026-03-26T08:20:56.233Z</time></trkpt><trkpt lat="38.2339225" lon="15.4574869"><ele>74.0</ele><time>2026-03-26T08:20:57.233Z</time></trkpt><trkpt lat="38.233839" lon="15.4576002"><ele>74.0</ele><time>2026-03-26T08:20:58.233Z</time></trkpt><trkpt lat="38.2337455" lon="15.4576963"><ele>74.0</ele><time>2026-03-26T08:20:59.233Z</time></trkpt><trkpt lat="38.2336468" lon="15.4577742"><ele>74.0</ele><time>2026-03-26T08:21:00.233Z</time></trkpt><trkpt lat="38.2335454" lon="15.4578608"><ele>74.0</ele><time>2026-03-26T08:21:01.233Z</time></trkpt><trkpt lat="38.2334522" lon="15.4579358"><ele>74.0</ele><time>2026-03-26T08:21:02.233Z</time></trkpt><trkpt lat="38.2333792" lon="15.4580273"><ele>74.0</ele><time>2026-03-26T08:21:03.233Z</time></trkpt><trkpt lat="38.2333012" lon="15.4581542"><ele>74.0</ele><time>2026-03-26T08:21:04.233Z</time></trkpt><trkpt lat="38.2332202" lon="15.4582965"><ele>72.66666666666667</ele><time>2026-03-26T08:21:05.233Z</time></trkpt><trkpt lat="38.2331363" lon="15.4584677"><ele>71.33333333333333</ele><time>2026-03-26T08:21:06.232Z</time></trkpt><trkpt lat="38.2330277" lon="15.4586917"><ele>70.0</ele><time>2026-03-26T08:21:07.233Z</time></trkpt><trkpt lat="38.2329303" lon="15.4588835"><ele>70.0</ele><time>2026-03-26T08:21:08.233Z</time></trkpt><trkpt lat="38.2328478" lon="15.4590578"><ele>70.0</ele><time>2026-03-26T08:21:09.233Z</time></trkpt><trkpt lat="38.2327676" lon="15.4592133"><ele>70.0</ele><time>2026-03-26T08:21:10.233Z</time></trkpt><trkpt lat="38.2327016" lon="15.4593478"><ele>70.0</ele><time>2026-03-26T08:21:11.232Z</time></trkpt><trkpt lat="38.2326326" lon="15.4594622"><ele>70.0</ele><time>2026-03-26T08:21:12.232Z</time></trkpt><trkpt lat="38.2325685" lon="15.4595883"><ele>70.0</ele><time>2026-03-26T08:21:13.233Z</time></trkpt><trkpt lat="38.2325102" lon="15.4597208"><ele>70.0</ele><time>2026-03-26T08:21:14.233Z</time></trkpt><trkpt lat="38.2324535" lon="15.459848"><ele>70.0</ele><time>2026-03-26T08:21:15.233Z</time></trkpt><trkpt lat="38.2323935" lon="15.4599723"><ele>70.0</ele><time>2026-03-26T08:21:16.233Z</time></trkpt><trkpt lat="38.2323253" lon="15.4600935"><ele>70.0</ele><time>2026-03-26T08:21:17.233Z</time></trkpt><trkpt lat="38.2322495" lon="15.4602099"><ele>70.0</ele><time>2026-03-26T08:21:18.233Z</time></trkpt><trkpt lat="38.2321459" lon="15.4602994"><ele>70.0</ele><time>2026-03-26T08:21:19.233Z</time></trkpt><trkpt lat="38.2320682" lon="15.460403"><ele>71.5</ele><time>2026-03-26T08:21:20.233Z</time></trkpt><trkpt lat="38.2319858" lon="15.4605349"><ele>73.0</ele><time>2026-03-26T08:21:21.233Z</time></trkpt><trkpt lat="38.2319183" lon="15.460669"><ele>74.5</ele><time>2026-03-26T08:21:22.233Z</time></trkpt><trkpt lat="38.2318642" lon="15.4607894"><ele>76.0</ele><time>2026-03-26T08:21:23.233Z</time></trkpt><trkpt lat="38.2318248" lon="15.4609172"><ele>76.0</ele><time>2026-03-26T08:21:24.233Z</time></trkpt><trkpt lat="38.2318049" lon="15.4610264"><ele>76.0</ele><time>2026-03-26T08:21:25.233Z</time></trkpt><trkpt lat="38.2317792" lon="15.4611354"><ele>76.0</ele><time>2026-03-26T08:21:26.233Z</time></trkpt><trkpt lat="38.2317456" lon="15.4612409"><ele>76.0</ele><time>2026-03-26T08:21:27.233Z</time></trkpt><trkpt lat="38.2316979" lon="15.4613357"><ele>76.0</ele><time>2026-03-26T08:21:28.232Z</time></trkpt><trkpt lat="38.2316523" lon="15.4614342"><ele>76.0</ele><time>2026-03-26T08:21:29.232Z</time></trkpt><trkpt lat="38.2315739" lon="15.4615389"><ele>76.0</ele><time>2026-03-26T08:21:30.233Z</time></trkpt><trkpt lat="38.2315229" lon="15.4616547"><ele>76.0</ele><time>2026-03-26T08:21:31.233Z</time></trkpt><trkpt lat="38.2314808" lon="15.4617991"><ele>76.0</ele><time>2026-03-26T08:21:32.233Z</time></trkpt><trkpt lat="38.2314263" lon="15.4619321"><ele>76.0</ele><time>2026-03-26T08:21:33.232Z</time></trkpt><trkpt lat="38.2313829" lon="15.4620999"><ele>80.0</ele><time>2026-03-26T08:21:34.233Z</time></trkpt><trkpt lat="38.2313341" lon="15.4622678"><ele>84.0</ele><time>2026-03-26T08:21:35.232Z</time></trkpt><trkpt lat="38.2312823" lon="15.4624064"><ele>88.0</ele><time>2026-03-26T08:21:36.233Z</time></trkpt><trkpt lat="38.2312252" lon="15.4625569"><ele>92.0</ele><time>2026-03-26T08:21:37.233Z</time></trkpt><trkpt lat="38.2311761" lon="15.4627061"><ele>92.0</ele><time>2026-03-26T08:21:38.232Z</time></trkpt><trkpt lat="38.2311408" lon="15.4628532"><ele>92.0</ele><time>2026-03-26T08:21:39.232Z</time></trkpt><trkpt lat="38.231117" lon="15.4629879"><ele>92.0</ele><time>2026-03-26T08:21:40.233Z</time></trkpt><trkpt lat="38.2310874" lon="15.463125"><ele>92.0</ele><time>2026-03-26T08:21:41.233Z</time></trkpt><trkpt lat="38.2310735" lon="15.4632586"><ele>92.0</ele><time>2026-03-26T08:21:42.233Z</time></trkpt><trkpt lat="38.2310487" lon="15.463376"><ele>92.0</ele><time>2026-03-26T08:21:43.232Z</time></trkpt><trkpt lat="38.2310309" lon="15.4635164"><ele>92.0</ele><time>2026-03-26T08:21:44.233Z</time></trkpt><trkpt lat="38.2309814" lon="15.4636234"><ele>92.0</ele><time>2026-03-26T08:21:45.232Z</time></trkpt><trkpt lat="38.2309461" lon="15.4637282"><ele>92.0</ele><time>2026-03-26T08:21:46.233Z</time></trkpt><trkpt lat="38.2309095" lon="15.4638308"><ele>92.0</ele><time>2026-03-26T08:21:47.232Z</time></trkpt><trkpt lat="38.2308763" lon="15.4639279"><ele>91.19999999999999</ele><time>2026-03-26T08:21:48.233Z</time></trkpt><trkpt lat="38.2308162" lon="15.4640482"><ele>90.4</ele><time>2026-03-26T08:21:49.232Z</time></trkpt><trkpt lat="38.2307659" lon="15.4641234"><ele>89.6</ele><time>2026-03-26T08:21:50.233Z</time></trkpt><trkpt lat="38.2307261" lon="15.4642181"><ele>88.80000000000001</ele><time>2026-03-26T08:21:51.233Z</time></trkpt><trkpt lat="38.2307224" lon="15.4643227"><ele>88.0</ele><time>2026-03-26T08:21:52.232Z</time></trkpt><trkpt lat="38.2306849" lon="15.4644334"><ele>88.0</ele><time>2026-03-26T08:21:53.232Z</time></trkpt><trkpt lat="38.2306488" lon="15.4645405"><ele>88.0</ele><time>2026-03-26T08:21:54.232Z</time></trkpt><trkpt lat="38.2306193" lon="15.4646607"><ele>88.0</ele><time>2026-03-26T08:21:55.233Z</time></trkpt><trkpt lat="38.2305952" lon="15.4647767"><ele>88.0</ele><time>2026-03-26T08:21:56.233Z</time></trkpt><trkpt lat="38.2305744" lon="15.4648988"><ele>88.0</ele><time>2026-03-26T08:21:57.232Z</time></trkpt><trkpt lat="38.2305527" lon="15.4650321"><ele>92.0</ele><time>2026-03-26T08:21:59.233Z</time></trkpt><trkpt lat="38.2311408" lon="15.4628532"><ele>92.0</ele><time>2026-03-26T08:21:39.232Z</time></trkpt><trkpt lat="38.231117" lon="15.4629879"><ele>92.0</ele><time>2026-03-26T08:21:40.233Z</time></trkpt><trkpt lat="38.2310874" lon="15.463125"><ele>92.0</ele><time>2026-03-26T08:21:41.233Z</time></trkpt><trkpt lat="38.2310735" lon="15.4632586"><ele>92.0</ele><time>2026-03-26T08:21:42.233Z</time></trkpt><trkpt lat="38.2310487" lon="15.463376"><ele>92.0</ele><time>2026-03-26T08:21:43.232Z</time></trkpt><trkpt lat="38.2310309" lon="15.4635164"><ele>92.0</ele><time>2026-03-26T08:21:44.233Z</time></trkpt><trkpt lat="38.2309814" lon="15.4636234"><ele>92.0</ele><time>2026-03-26T08:21:45.232Z</time></trkpt><trkpt lat="38.2309461" lon="15.4637282"><ele>92.0</ele><time>2026-03-26T08:21:46.233Z</time></trkpt><trkpt lat="38.2309095" lon="15.4638308"><ele>92.0</ele><time>2026-03-26T08:21:47.232Z</time></trkpt><trkpt lat="38.2308763" lon="15.4639279"><ele>92.0</ele><time>2026-03-26T08:21:48.233Z</time></trkpt><trkpt lat="38.2308162" lon="15.4640482"><ele>91.33333333333334</ele><time>2026-03-26T08:21:49.232Z</time></trkpt><trkpt lat="38.2307659" lon="15.4641234"><ele>90.66666666666667</ele><time>2026-03-26T08:21:50.233Z</time></trkpt><trkpt lat="38.2307261" lon="15.4642181"><ele>90.0</ele><time>2026-03-26T08:21:51.233Z</time></trkpt><trkpt lat="38.2307224" lon="15.4643227"><ele>89.33333333333333</ele><time>2026-03-26T08:21:52.232Z</time></trkpt><trkpt lat="38.2306849" lon="15.4644334"><ele>88.66666666666666</ele><time>2026-03-26T08:21:53.232Z</time></trkpt><trkpt lat="38.2306488" lon="15.4645405"><ele>88.0</ele><time>2026-03-26T08:21:54.232Z</time></trkpt><trkpt lat="38.2306193" lon="15.4646607"><ele>93.0</ele><time>2026-03-26T08:21:55.233Z</time></trkpt><trkpt lat="38.2305952" lon="15.4647767"><ele>98.0</ele><time>2026-03-26T08:21:56.233Z</time></trkpt><trkpt lat="38.2305744" lon="15.4648988"><ele>103.00000000000001</ele><time>2026-03-26T08:21:57.232Z</time></trkpt><trkpt lat="38.2305527" lon="15.4650321"><ele>108.0</ele><time>2026-03-26T08:21:59.233Z</time></trkpt><trkpt lat="38.2305393" lon="15.4651371"><ele>113.0</ele><time>2026-03-26T08:22:18.233Z</time></trkpt><trkpt lat="38.2305267" lon="15.4652549"><ele>113.0</ele><time>2026-03-26T08:22:20.233Z</time></trkpt><trkpt lat="38.2305133" lon="15.465392"><ele>113.00000000000001</ele><time>2026-03-26T08:22:22.233Z</time></trkpt><trkpt lat="38.2304774" lon="15.4655279"><ele>113.00000000000001</ele><time>2026-03-26T08:22:24.233Z</time></trkpt><trkpt lat="38.2304505" lon="15.4656392"><ele>113.0</ele><time>2026-03-26T08:22:26.233Z</time></trkpt><trkpt lat="38.2304181" lon="15.4657413"><ele>113.0</ele><time>2026-03-26T08:22:29.233Z</time></trkpt><trkpt lat="38.2303742" lon="15.4658628"><ele>110.99999999999999</ele><time>2026-03-26T08:22:32.233Z</time></trkpt><trkpt lat="38.2303247" lon="15.4659448"><ele>109.0</ele><time>2026-03-26T08:22:34.232Z</time></trkpt><trkpt lat="38.2302688" lon="15.4660195"><ele>107.0</ele><time>2026-03-26T08:22:36.233Z</time></trkpt><trkpt lat="38.2301787" lon="15.4660893"><ele>105.0</ele><time>2026-03-26T08:22:38.233Z</time></trkpt><trkpt lat="38.230094" lon="15.4661107"><ele>102.99999999999999</ele><time>2026-03-26T08:22:40.233Z</time></trkpt><trkpt lat="38.2300081" lon="15.4661501"><ele>101.0</ele><time>2026-03-26T08:22:42.232Z</time></trkpt><trkpt lat="38.2299101" lon="15.4661782"><ele>101.0</ele><time>2026-03-26T08:22:44.233Z</time></trkpt><trkpt lat="38.2298457" lon="15.4661983"><ele>101.0</ele><time>2026-03-26T08:22:46.232Z</time></trkpt><trkpt lat="38.2297798" lon="15.4662386"><ele>101.0</ele><time>2026-03-26T08:22:55.233Z</time></trkpt><trkpt lat="38.2298532" lon="15.4662238"><ele>101.0</ele><time>2026-03-26T08:23:20.233Z</time></trkpt><trkpt lat="38.2299372" lon="15.4661925"><ele>101.0</ele><time>2026-03-26T08:23:23.233Z</time></trkpt><trkpt lat="38.2299992" lon="15.4661697"><ele>101.0</ele><time>2026-03-26T08:23:25.233Z</time></trkpt><trkpt lat="38.2300602" lon="15.4661432"><ele>101.0</ele><time>2026-03-26T08:23:27.233Z</time></trkpt><trkpt lat="38.2301264" lon="15.4661209"><ele>100.99999999999999</ele><time>2026-03-26T08:23:29.233Z</time></trkpt><trkpt lat="38.2302015" lon="15.4661093"><ele>101.0</ele><time>2026-03-26T08:23:31.233Z</time></trkpt><trkpt lat="38.2302729" lon="15.4660629"><ele>101.0</ele><time>2026-03-26T08:23:33.233Z</time></trkpt><trkpt lat="38.2303261" lon="15.4659762"><ele>101.0</ele><time>2026-03-26T08:23:35.233Z</time></trkpt><trkpt lat="38.2303722" lon="15.4658979"><ele>100.99999999999999</ele><time>2026-03-26T08:23:37.233Z</time></trkpt><trkpt lat="38.230404" lon="15.4658098"><ele>101.0</ele><time>2026-03-26T08:23:40.233Z</time></trkpt><trkpt lat="38.2304435" lon="15.4658761"><ele>101.0</ele><time>2026-03-26T08:24:06.232Z</time></trkpt><trkpt lat="38.2304251" lon="15.4659687"><ele>101.0</ele><time>2026-03-26T08:24:08.233Z</time></trkpt><trkpt lat="38.2303772" lon="15.4660782"><ele>101.0</ele><time>2026-03-26T08:24:10.233Z</time></trkpt><trkpt lat="38.2303305" lon="15.4661936"><ele>101.0</ele><time>2026-03-26T08:24:12.233Z</time></trkpt><trkpt lat="38.2302667" lon="15.4663203"><ele>101.0</ele><time>2026-03-26T08:24:14.233Z</time></trkpt><trkpt lat="38.2301868" lon="15.4664305"><ele>100.16666666666666</ele><time>2026-03-26T08:24:16.234Z</time></trkpt><trkpt lat="38.23011" lon="15.4665462"><ele>99.33333333333333</ele><time>2026-03-26T08:24:18.233Z</time></trkpt><trkpt lat="38.2300297" lon="15.4666606"><ele>98.5</ele><time>2026-03-26T08:24:20.233Z</time></trkpt><trkpt lat="38.2299912" lon="15.4667248"><ele>97.66666666666666</ele><time>2026-03-26T08:24:21.233Z</time></trkpt><trkpt lat="38.2299473" lon="15.4667907"><ele>96.83333333333333</ele><time>2026-03-26T08:24:22.233Z</time></trkpt><trkpt lat="38.2299033" lon="15.4668582"><ele>96.0</ele><time>2026-03-26T08:24:23.233Z</time></trkpt><trkpt lat="38.229864" lon="15.4669258"><ele>95.99999999999999</ele><time>2026-03-26T08:24:24.233Z</time></trkpt><trkpt lat="38.2298319" lon="15.4670006"><ele>96.0</ele><time>2026-03-26T08:24:25.233Z</time></trkpt><trkpt lat="38.2298001" lon="15.4670768"><ele>96.0</ele><time>2026-03-26T08:24:26.233Z</time></trkpt><trkpt lat="38.2297797" lon="15.4671804"><ele>96.0</ele><time>2026-03-26T08:24:27.233Z</time></trkpt><trkpt lat="38.229763" lon="15.4672699"><ele>96.0</ele><time>2026-03-26T08:24:28.232Z</time></trkpt><trkpt lat="38.229745" lon="15.4673615"><ele>95.99999999999999</ele><time>2026-03-26T08:24:29.232Z</time></trkpt><trkpt lat="38.2297205" lon="15.4674461"><ele>96.0</ele><time>2026-03-26T08:24:30.233Z</time></trkpt><trkpt lat="38.2296964" lon="15.4675288"><ele>99.0</ele><time>2026-03-26T08:24:31.233Z</time></trkpt><trkpt lat="38.2296842" lon="15.4676167"><ele>102.0</ele><time>2026-03-26T08:24:32.233Z</time></trkpt><trkpt lat="38.2296711" lon="15.4677041"><ele>105.0</ele><time>2026-03-26T08:24:33.233Z</time></trkpt><trkpt lat="38.2296678" lon="15.4677894"><ele>108.0</ele><time>2026-03-26T08:24:34.233Z</time></trkpt><trkpt lat="38.2296714" lon="15.4678827"><ele>111.00000000000001</ele><time>2026-03-26T08:24:35.232Z</time></trkpt><trkpt lat="38.2296781" lon="15.4679749"><ele>114.0</ele><time>2026-03-26T08:24:36.232Z</time></trkpt><trkpt lat="38.2296888" lon="15.4680662"><ele>117.0</ele><time>2026-03-26T08:24:37.233Z</time></trkpt><trkpt lat="38.229687" lon="15.4681631"><ele>118.19999999999999</ele><time>2026-03-26T08:24:38.233Z</time></trkpt><trkpt lat="38.2297046" lon="15.46827"><ele>119.39999999999999</ele><time>2026-03-26T08:24:39.233Z</time></trkpt><trkpt lat="38.2297564" lon="15.4683891"><ele>120.60000000000001</ele><time>2026-03-26T08:24:41.232Z</time></trkpt><trkpt lat="38.2298215" lon="15.4685166"><ele>121.80000000000001</ele><time>2026-03-26T08:24:43.233Z</time></trkpt><trkpt lat="38.2298814" lon="15.468649"><ele>123.0</ele><time>2026-03-26T08:24:45.233Z</time></trkpt><trkpt lat="38.2299342" lon="15.4687843"><ele>119.0</ele><time>2026-03-26T08:24:47.233Z</time></trkpt><trkpt lat="38.2299573" lon="15.4689153"><ele>115.00000000000001</ele><time>2026-03-26T08:24:49.233Z</time></trkpt><trkpt lat="38.2299671" lon="15.469025"><ele>111.0</ele><time>2026-03-26T08:24:51.233Z</time></trkpt><trkpt lat="38.2299774" lon="15.4691226"><ele>107.0</ele><time>2026-03-26T08:24:53.233Z</time></trkpt><trkpt lat="38.2299803" lon="15.4692479"><ele>103.0</ele><time>2026-03-26T08:24:55.233Z</time></trkpt><trkpt lat="38.229987" lon="15.469359"><ele>102.99999999999999</ele><time>2026-03-26T08:24:57.233Z</time></trkpt><trkpt lat="38.2299689" lon="15.4694702"><ele>103.0</ele><time>2026-03-26T08:24:59.233Z</time></trkpt><trkpt lat="38.2299429" lon="15.4695469"><ele>103.0</ele><time>2026-03-26T08:25:01.233Z</time></trkpt><trkpt lat="38.2298898" lon="15.4696375"><ele>103.0</ele><time>2026-03-26T08:25:04.233Z</time></trkpt><trkpt lat="38.2298533" lon="15.4697044"><ele>103.0</ele><time>2026-03-26T08:25:06.233Z</time></trkpt><trkpt lat="38.2298142" lon="15.4697778"><ele>102.99999999999999</ele><time>2026-03-26T08:25:08.233Z</time></trkpt><trkpt lat="38.2297582" lon="15.4698211"><ele>103.0</ele><time>2026-03-26T08:25:10.234Z</time></trkpt><trkpt lat="38.2296923" lon="15.469831"><ele>104.50000000000001</ele><time>2026-03-26T08:25:13.233Z</time></trkpt><trkpt lat="38.2296189" lon="15.4698125"><ele>106.0</ele><time>2026-03-26T08:25:15.233Z</time></trkpt><trkpt lat="38.2295128" lon="15.4697978"><ele>107.5</ele><time>2026-03-26T08:25:17.233Z</time></trkpt><trkpt lat="38.2293909" lon="15.4698126"><ele>109.0</ele><time>2026-03-26T08:25:19.233Z</time></trkpt><trkpt lat="38.2293284" lon="15.4698273"><ele>110.50000000000001</ele><time>2026-03-26T08:25:20.233Z</time></trkpt><trkpt lat="38.2292599" lon="15.4698339"><ele>112.0</ele><time>2026-03-26T08:25:21.232Z</time></trkpt><trkpt lat="38.229188" lon="15.4698357"><ele>112.0</ele><time>2026-03-26T08:25:22.233Z</time></trkpt><trkpt lat="38.229123" lon="15.4698398"><ele>112.0</ele><time>2026-03-26T08:25:23.232Z</time></trkpt><trkpt lat="38.2290557" lon="15.4698395"><ele>112.0</ele><time>2026-03-26T08:25:24.233Z</time></trkpt><trkpt lat="38.2289899" lon="15.4698542"><ele>112.0</ele><time>2026-03-26T08:25:25.233Z</time></trkpt><trkpt lat="38.2289226" lon="15.4698751"><ele>112.0</ele><time>2026-03-26T08:25:26.233Z</time></trkpt><trkpt lat="38.2288508" lon="15.4699088"><ele>112.0</ele><time>2026-03-26T08:25:27.233Z</time></trkpt><trkpt lat="38.2287844" lon="15.4699545"><ele>112.0</ele><time>2026-03-26T08:25:28.233Z</time></trkpt><trkpt lat="38.2287198" lon="15.4700051"><ele>113.00000000000001</ele><time>2026-03-26T08:25:29.233Z</time></trkpt><trkpt lat="38.2286544" lon="15.4700589"><ele>114.0</ele><time>2026-03-26T08:25:30.233Z</time></trkpt><trkpt lat="38.2285961" lon="15.4701195"><ele>115.0</ele><time>2026-03-26T08:25:31.233Z</time></trkpt><trkpt lat="38.2285507" lon="15.4701944"><ele>116.0</ele><time>2026-03-26T08:25:32.233Z</time></trkpt><trkpt lat="38.2285021" lon="15.4702699"><ele>117.00000000000001</ele><time>2026-03-26T08:25:33.233Z</time></trkpt><trkpt lat="38.2285191" lon="15.4703643"><ele>118.0</ele><time>2026-03-26T08:25:34.232Z</time></trkpt><trkpt lat="38.2285263" lon="15.4704602"><ele>118.00000000000001</ele><time>2026-03-26T08:25:35.233Z</time></trkpt><trkpt lat="38.2285725" lon="15.4705498"><ele>118.0</ele><time>2026-03-26T08:25:36.233Z</time></trkpt><trkpt lat="38.2286241" lon="15.4706357"><ele>118.0</ele><time>2026-03-26T08:25:37.233Z</time></trkpt><trkpt lat="38.2286647" lon="15.4707194"><ele>118.0</ele><time>2026-03-26T08:25:38.232Z</time></trkpt><trkpt lat="38.2286726" lon="15.4708176"><ele>118.00000000000001</ele><time>2026-03-26T08:25:39.232Z</time></trkpt><trkpt lat="38.2286984" lon="15.4709427"><ele>118.0</ele><time>2026-03-26T08:25:41.233Z</time></trkpt><trkpt lat="38.2287147" lon="15.4710346"><ele>118.00000000000001</ele><time>2026-03-26T08:25:43.233Z</time></trkpt><trkpt lat="38.2287353" lon="15.4711281"><ele>118.0</ele><time>2026-03-26T08:25:45.233Z</time></trkpt><trkpt lat="38.2287618" lon="15.4712371"><ele>118.0</ele><time>2026-03-26T08:25:47.233Z</time></trkpt><trkpt lat="38.2288018" lon="15.4713595"><ele>118.0</ele><time>2026-03-26T08:25:49.233Z</time></trkpt><trkpt lat="38.2287904" lon="15.4714667"><ele>118.00000000000001</ele><time>2026-03-26T08:25:51.232Z</time></trkpt><trkpt lat="38.2287685" lon="15.4715561"><ele>118.0</ele><time>2026-03-26T08:25:53.233Z</time></trkpt><trkpt lat="38.2287634" lon="15.4716561"><ele>118.2</ele><time>2026-03-26T08:25:55.233Z</time></trkpt><trkpt lat="38.2287721" lon="15.4717793"><ele>118.4</ele><time>2026-03-26T08:25:57.233Z</time></trkpt><trkpt lat="38.2287453" lon="15.4718998"><ele>118.60000000000001</ele><time>2026-03-26T08:25:59.233Z</time></trkpt><trkpt lat="38.2286905" lon="15.4719971"><ele>118.80000000000001</ele><time>2026-03-26T08:26:01.233Z</time></trkpt><trkpt lat="38.2286243" lon="15.4720961"><ele>119.0</ele><time>2026-03-26T08:26:03.233Z</time></trkpt><trkpt lat="38.2285748" lon="15.4721847"><ele>119.0</ele><time>2026-03-26T08:26:05.233Z</time></trkpt><trkpt lat="38.2285325" lon="15.4722976"><ele>119.0</ele><time>2026-03-26T08:26:07.232Z</time></trkpt><trkpt lat="38.228485" lon="15.4723791"><ele>119.0</ele><time>2026-03-26T08:26:09.233Z</time></trkpt><trkpt lat="38.2284123" lon="15.4724647"><ele>119.0</ele><time>2026-03-26T08:26:11.232Z</time></trkpt><trkpt lat="38.2283252" lon="15.4725467"><ele>119.0</ele><time>2026-03-26T08:26:13.233Z</time></trkpt><trkpt lat="38.2282571" lon="15.4726349"><ele>119.0</ele><time>2026-03-26T08:26:15.233Z</time></trkpt><trkpt lat="38.228173" lon="15.4727255"><ele>119.0</ele><time>2026-03-26T08:26:17.233Z</time></trkpt><trkpt lat="38.2280729" lon="15.472813"><ele>119.0</ele><time>2026-03-26T08:26:19.233Z</time></trkpt><trkpt lat="38.2280245" lon="15.4728651"><ele>119.0</ele><time>2026-03-26T08:26:20.232Z</time></trkpt><trkpt lat="38.227921" lon="15.472963"><ele>119.0</ele><time>2026-03-26T08:26:22.233Z</time></trkpt><trkpt lat="38.2278132" lon="15.4730414"><ele>120.0</ele><time>2026-03-26T08:26:24.233Z</time></trkpt><trkpt lat="38.2277526" lon="15.4730689"><ele>121.0</ele><time>2026-03-26T08:26:25.233Z</time></trkpt><trkpt lat="38.2276896" lon="15.4730983"><ele>122.0</ele><time>2026-03-26T08:26:26.233Z</time></trkpt><trkpt lat="38.2276245" lon="15.4731201"><ele>123.0</ele><time>2026-03-26T08:26:27.233Z</time></trkpt><trkpt lat="38.2275556" lon="15.4731492"><ele>124.0</ele><time>2026-03-26T08:26:28.233Z</time></trkpt><trkpt lat="38.2274927" lon="15.4731826"><ele>125.0</ele><time>2026-03-26T08:26:29.233Z</time></trkpt><trkpt lat="38.2274371" lon="15.4732275"><ele>126.0</ele><time>2026-03-26T08:26:30.232Z</time></trkpt><trkpt lat="38.2273821" lon="15.4732819"><ele>126.0</ele><time>2026-03-26T08:26:31.233Z</time></trkpt><trkpt lat="38.2273246" lon="15.4733467"><ele>126.0</ele><time>2026-03-26T08:26:32.233Z</time></trkpt><trkpt lat="38.2272649" lon="15.4734081"><ele>126.0</ele><time>2026-03-26T08:26:33.233Z</time></trkpt><trkpt lat="38.2272031" lon="15.4734682"><ele>126.0</ele><time>2026-03-26T08:26:34.233Z</time></trkpt><trkpt lat="38.22714" lon="15.4735205"><ele>126.0</ele><time>2026-03-26T08:26:35.233Z</time></trkpt><trkpt lat="38.2270758" lon="15.473569"><ele>126.0</ele><time>2026-03-26T08:26:36.234Z</time></trkpt><trkpt lat="38.2270106" lon="15.4736163"><ele>127.0</ele><time>2026-03-26T08:26:37.233Z</time></trkpt><trkpt lat="38.226947" lon="15.473659"><ele>128.0</ele><time>2026-03-26T08:26:38.233Z</time></trkpt><trkpt lat="38.2268811" lon="15.4736992"><ele>129.0</ele><time>2026-03-26T08:26:39.233Z</time></trkpt><trkpt lat="38.2268121" lon="15.473752"><ele>130.0</ele><time>2026-03-26T08:26:40.233Z</time></trkpt><trkpt lat="38.2267435" lon="15.4738152"><ele>131.0</ele><time>2026-03-26T08:26:41.233Z</time></trkpt><trkpt lat="38.2266742" lon="15.4738729"><ele>132.0</ele><time>2026-03-26T08:26:42.233Z</time></trkpt><trkpt lat="38.2266113" lon="15.4739157"><ele>132.0</ele><time>2026-03-26T08:26:43.233Z</time></trkpt><trkpt lat="38.2265492" lon="15.4739538"><ele>132.0</ele><time>2026-03-26T08:26:44.233Z</time></trkpt><trkpt lat="38.22649" lon="15.4739919"><ele>132.0</ele><time>2026-03-26T08:26:45.233Z</time></trkpt><trkpt lat="38.2264023" lon="15.47409"><ele>132.0</ele><time>2026-03-26T08:26:47.234Z</time></trkpt><trkpt lat="38.2263669" lon="15.4741652"><ele>132.0</ele><time>2026-03-26T08:26:48.233Z</time></trkpt><trkpt lat="38.2263332" lon="15.4742416"><ele>132.0</ele><time>2026-03-26T08:26:49.233Z</time></trkpt><trkpt lat="38.2262951" lon="15.4743155"><ele>132.5</ele><time>2026-03-26T08:26:50.233Z</time></trkpt><trkpt lat="38.2262535" lon="15.4744049"><ele>133.0</ele><time>2026-03-26T08:26:51.234Z</time></trkpt><trkpt lat="38.2262191" lon="15.4744872"><ele>133.5</ele><time>2026-03-26T08:26:52.233Z</time></trkpt><trkpt lat="38.2261838" lon="15.4745737"><ele>134.0</ele><time>2026-03-26T08:26:53.232Z</time></trkpt><trkpt lat="38.2261459" lon="15.4746657"><ele>134.5</ele><time>2026-03-26T08:26:54.233Z</time></trkpt><trkpt lat="38.2261071" lon="15.4747621"><ele>135.0</ele><time>2026-03-26T08:26:55.233Z</time></trkpt><trkpt lat="38.2260701" lon="15.4748645"><ele>135.5</ele><time>2026-03-26T08:26:56.233Z</time></trkpt><trkpt lat="38.2260416" lon="15.4749674"><ele>136.0</ele><time>2026-03-26T08:26:57.233Z</time></trkpt><trkpt lat="38.226011" lon="15.4750722"><ele>136.5</ele><time>2026-03-26T08:26:58.233Z</time></trkpt><trkpt lat="38.2259835" lon="15.4751841"><ele>137.0</ele><time>2026-03-26T08:26:59.233Z</time></trkpt><trkpt lat="38.22596" lon="15.4752958"><ele>137.5</ele><time>2026-03-26T08:27:00.234Z</time></trkpt><trkpt lat="38.2259333" lon="15.4754077"><ele>138.0</ele><time>2026-03-26T08:27:01.233Z</time></trkpt><trkpt lat="38.2259048" lon="15.4755127"><ele>138.20000000000002</ele><time>2026-03-26T08:27:02.232Z</time></trkpt><trkpt lat="38.2258765" lon="15.4756244"><ele>138.4</ele><time>2026-03-26T08:27:03.233Z</time></trkpt><trkpt lat="38.2258543" lon="15.4757263"><ele>138.60000000000002</ele><time>2026-03-26T08:27:04.233Z</time></trkpt><trkpt lat="38.225833" lon="15.4758411"><ele>138.8</ele><time>2026-03-26T08:27:05.232Z</time></trkpt><trkpt lat="38.225798" lon="15.4759566"><ele>139.0</ele><time>2026-03-26T08:27:06.232Z</time></trkpt><trkpt lat="38.2257745" lon="15.4760911"><ele>139.0</ele><time>2026-03-26T08:27:07.234Z</time></trkpt><trkpt lat="38.2257436" lon="15.4762145"><ele>139.0</ele><time>2026-03-26T08:27:08.233Z</time></trkpt><trkpt lat="38.2257184" lon="15.4763422"><ele>139.0</ele><time>2026-03-26T08:27:09.233Z</time></trkpt><trkpt lat="38.2256897" lon="15.4764695"><ele>139.0</ele><time>2026-03-26T08:27:10.233Z</time></trkpt><trkpt lat="38.2256698" lon="15.4765985"><ele>139.0</ele><time>2026-03-26T08:27:11.233Z</time></trkpt><trkpt lat="38.2256408" lon="15.4767281"><ele>139.6</ele><time>2026-03-26T08:27:12.233Z</time></trkpt><trkpt lat="38.2256043" lon="15.4768552"><ele>140.2</ele><time>2026-03-26T08:27:13.233Z</time></trkpt><trkpt lat="38.2255779" lon="15.4769801"><ele>140.79999999999998</ele><time>2026-03-26T08:27:14.233Z</time></trkpt><trkpt lat="38.2255541" lon="15.4771043"><ele>141.4</ele><time>2026-03-26T08:27:15.233Z</time></trkpt><trkpt lat="38.2255317" lon="15.4772175"><ele>142.0</ele><time>2026-03-26T08:27:16.232Z</time></trkpt><trkpt lat="38.2255062" lon="15.4773285"><ele>142.2</ele><time>2026-03-26T08:27:17.233Z</time></trkpt><trkpt lat="38.2254719" lon="15.477449"><ele>142.39999999999998</ele><time>2026-03-26T08:27:18.233Z</time></trkpt><trkpt lat="38.2254418" lon="15.4775696"><ele>142.60000000000002</ele><time>2026-03-26T08:27:19.233Z</time></trkpt><trkpt lat="38.2254061" lon="15.4776904"><ele>142.8</ele><time>2026-03-26T08:27:20.232Z</time></trkpt><trkpt lat="38.2253593" lon="15.4778083"><ele>143.0</ele><time>2026-03-26T08:27:21.233Z</time></trkpt><trkpt lat="38.2253201" lon="15.4779051"><ele>143.0</ele><time>2026-03-26T08:27:22.233Z</time></trkpt><trkpt lat="38.2252844" lon="15.4780154"><ele>143.0</ele><time>2026-03-26T08:27:23.233Z</time></trkpt><trkpt lat="38.2252499" lon="15.4781129"><ele>143.0</ele><time>2026-03-26T08:27:24.233Z</time></trkpt><trkpt lat="38.2252191" lon="15.4782097"><ele>143.0</ele><time>2026-03-26T08:27:25.233Z</time></trkpt><trkpt lat="38.2251858" lon="15.4783162"><ele>143.0</ele><time>2026-03-26T08:27:26.233Z</time></trkpt><trkpt lat="38.2251531" lon="15.4784148"><ele>143.0</ele><time>2026-03-26T08:27:27.233Z</time></trkpt><trkpt lat="38.2251157" lon="15.4785176"><ele>143.0</ele><time>2026-03-26T08:27:28.234Z</time></trkpt><trkpt lat="38.2250807" lon="15.4786162"><ele>143.0</ele><time>2026-03-26T08:27:29.233Z</time></trkpt><trkpt lat="38.225047" lon="15.4787112"><ele>143.0</ele><time>2026-03-26T08:27:30.233Z</time></trkpt><trkpt lat="38.2250119" lon="15.4788093"><ele>143.0</ele><time>2026-03-26T08:27:31.233Z</time></trkpt><trkpt lat="38.2249801" lon="15.4789075"><ele>143.0</ele><time>2026-03-26T08:27:32.233Z</time></trkpt><trkpt lat="38.2249466" lon="15.4789915"><ele>143.0</ele><time>2026-03-26T08:27:33.233Z</time></trkpt><trkpt lat="38.2249256" lon="15.4790772"><ele>143.83333333333331</ele><time>2026-03-26T08:27:34.233Z</time></trkpt><trkpt lat="38.2248807" lon="15.4792096"><ele>144.66666666666666</ele><time>2026-03-26T08:27:36.234Z</time></trkpt><trkpt lat="38.224849" lon="15.4792795"><ele>145.5</ele><time>2026-03-26T08:27:37.233Z</time></trkpt><trkpt lat="38.2248242" lon="15.4793578"><ele>146.33333333333334</ele><time>2026-03-26T08:27:38.233Z</time></trkpt><trkpt lat="38.2248039" lon="15.4794371"><ele>147.16666666666669</ele><time>2026-03-26T08:27:39.233Z</time></trkpt><trkpt lat="38.2247999" lon="15.4795747"><ele>148.0</ele><time>2026-03-26T08:27:41.233Z</time></trkpt><trkpt lat="38.224829" lon="15.4796481"><ele>148.57142857142858</ele><time>2026-03-26T08:27:42.233Z</time></trkpt><trkpt lat="38.2248687" lon="15.4797215"><ele>149.14285714285714</ele><time>2026-03-26T08:27:43.233Z</time></trkpt><trkpt lat="38.2249116" lon="15.4798011"><ele>149.71428571428572</ele><time>2026-03-26T08:27:44.233Z</time></trkpt><trkpt lat="38.2249604" lon="15.4798936"><ele>150.28571428571428</ele><time>2026-03-26T08:27:45.233Z</time></trkpt><trkpt lat="38.2249961" lon="15.4799804"><ele>150.85714285714286</ele><time>2026-03-26T08:27:46.233Z</time></trkpt><trkpt lat="38.2250353" lon="15.480057"><ele>151.42857142857142</ele><time>2026-03-26T08:27:47.233Z</time></trkpt><trkpt lat="38.2250613" lon="15.4801301"><ele>152.0</ele><time>2026-03-26T08:27:48.233Z</time></trkpt><trkpt lat="38.2250856" lon="15.4802132"><ele>152.0</ele><time>2026-03-26T08:27:49.233Z</time></trkpt><trkpt lat="38.2251119" lon="15.4803672"><ele>152.0</ele><time>2026-03-26T08:27:51.233Z</time></trkpt><trkpt lat="38.2251265" lon="15.4805153"><ele>152.0</ele><time>2026-03-26T08:27:53.233Z</time></trkpt><trkpt lat="38.225161" lon="15.4806348"><ele>152.0</ele><time>2026-03-26T08:27:55.233Z</time></trkpt><trkpt lat="38.2252198" lon="15.4807428"><ele>152.0</ele><time>2026-03-26T08:27:57.232Z</time></trkpt><trkpt lat="38.2252693" lon="15.4808638"><ele>152.57142857142856</ele><time>2026-03-26T08:27:59.233Z</time></trkpt><trkpt lat="38.2253053" lon="15.4809448"><ele>153.14285714285717</ele><time>2026-03-26T08:28:00.233Z</time></trkpt><trkpt lat="38.2253357" lon="15.4810264"><ele>153.71428571428572</ele><time>2026-03-26T08:28:01.232Z</time></trkpt><trkpt lat="38.2253731" lon="15.481106"><ele>154.28571428571428</ele><time>2026-03-26T08:28:02.233Z</time></trkpt><trkpt lat="38.2254011" lon="15.4811895"><ele>154.85714285714283</ele><time>2026-03-26T08:28:03.233Z</time></trkpt><trkpt lat="38.2254301" lon="15.4812758"><ele>155.42857142857144</ele><time>2026-03-26T08:28:04.233Z</time></trkpt><trkpt lat="38.2254571" lon="15.4813555"><ele>156.0</ele><time>2026-03-26T08:28:05.233Z</time></trkpt><trkpt lat="38.2255035" lon="15.4814987"><ele>157.33333333333334</ele><time>2026-03-26T08:28:07.232Z</time></trkpt><trkpt lat="38.2255291" lon="15.4815973"><ele>158.66666666666666</ele><time>2026-03-26T08:28:08.233Z</time></trkpt><trkpt lat="38.2255429" lon="15.4816756"><ele>160.0</ele><time>2026-03-26T08:28:09.233Z</time></trkpt><trkpt lat="38.2255694" lon="15.4818201"><ele>161.33333333333331</ele><time>2026-03-26T08:28:11.233Z</time></trkpt><trkpt lat="38.2255822" lon="15.4819047"><ele>162.66666666666666</ele><time>2026-03-26T08:28:12.233Z</time></trkpt><trkpt lat="38.2255962" lon="15.481989"><ele>164.0</ele><time>2026-03-26T08:28:13.233Z</time></trkpt><trkpt lat="38.2256283" lon="15.4821287"><ele>163.85714285714283</ele><time>2026-03-26T08:28:15.233Z</time></trkpt><trkpt lat="38.2256456" lon="15.4822123"><ele>163.71428571428572</ele><time>2026-03-26T08:28:16.233Z</time></trkpt><trkpt lat="38.2256732" lon="15.4823027"><ele>163.57142857142856</ele><time>2026-03-26T08:28:17.233Z</time></trkpt><trkpt lat="38.2256871" lon="15.4824019"><ele>163.42857142857142</ele><time>2026-03-26T08:28:18.233Z</time></trkpt><trkpt lat="38.2257051" lon="15.4825032"><ele>163.28571428571428</ele><time>2026-03-26T08:28:19.232Z</time></trkpt><trkpt lat="38.2257186" lon="15.482596"><ele>163.14285714285714</ele><time>2026-03-26T08:28:20.233Z</time></trkpt><trkpt lat="38.2257277" lon="15.4826805"><ele>163.0</ele><time>2026-03-26T08:28:21.233Z</time></trkpt><trkpt lat="38.2257406" lon="15.4828066"><ele>163.83333333333334</ele><time>2026-03-26T08:28:23.233Z</time></trkpt><trkpt lat="38.2257384" lon="15.4829474"><ele>164.66666666666669</ele><time>2026-03-26T08:28:25.233Z</time></trkpt><trkpt lat="38.2256862" lon="15.4830928"><ele>165.5</ele><time>2026-03-26T08:28:27.233Z</time></trkpt><trkpt lat="38.2256605" lon="15.4831739"><ele>166.33333333333334</ele><time>2026-03-26T08:28:28.233Z</time></trkpt><trkpt lat="38.2256374" lon="15.4832577"><ele>167.16666666666666</ele><time>2026-03-26T08:28:29.232Z</time></trkpt><trkpt lat="38.2256263" lon="15.4833444"><ele>168.0</ele><time>2026-03-26T08:28:30.233Z</time></trkpt><trkpt lat="38.22561" lon="15.4834388"><ele>169.16666666666666</ele><time>2026-03-26T08:28:31.233Z</time></trkpt><trkpt lat="38.2255967" lon="15.4835346"><ele>170.33333333333334</ele><time>2026-03-26T08:28:32.232Z</time></trkpt><trkpt lat="38.2255869" lon="15.4836251"><ele>171.5</ele><time>2026-03-26T08:28:33.233Z</time></trkpt><trkpt lat="38.2255723" lon="15.483734"><ele>172.66666666666669</ele><time>2026-03-26T08:28:34.233Z</time></trkpt><trkpt lat="38.225562" lon="15.4838472"><ele>173.83333333333334</ele><time>2026-03-26T08:28:35.233Z</time></trkpt><trkpt lat="38.2255573" lon="15.4839629"><ele>175.0</ele><time>2026-03-26T08:28:36.232Z</time></trkpt><trkpt lat="38.2255462" lon="15.4840828"><ele>175.16666666666669</ele><time>2026-03-26T08:28:37.233Z</time></trkpt><trkpt lat="38.2255392" lon="15.4842043"><ele>175.33333333333334</ele><time>2026-03-26T08:28:38.233Z</time></trkpt><trkpt lat="38.2255297" lon="15.4843231"><ele>175.5</ele><time>2026-03-26T08:28:39.233Z</time></trkpt><trkpt lat="38.2255233" lon="15.4844308"><ele>175.66666666666666</ele><time>2026-03-26T08:28:40.233Z</time></trkpt><trkpt lat="38.2255099" lon="15.4845398"><ele>175.83333333333331</ele><time>2026-03-26T08:28:41.232Z</time></trkpt><trkpt lat="38.2255015" lon="15.4846442"><ele>176.0</ele><time>2026-03-26T08:28:42.233Z</time></trkpt><trkpt lat="38.2254825" lon="15.484722"><ele>175.60000000000002</ele><time>2026-03-26T08:28:43.233Z</time></trkpt><trkpt lat="38.2254739" lon="15.4848062"><ele>175.2</ele><time>2026-03-26T08:28:44.233Z</time></trkpt><trkpt lat="38.2254624" lon="15.4849131"><ele>174.8</ele><time>2026-03-26T08:28:45.233Z</time></trkpt><trkpt lat="38.2254152" lon="15.4849739"><ele>174.39999999999998</ele><time>2026-03-26T08:28:46.233Z</time></trkpt><trkpt lat="38.2253256" lon="15.4850982"><ele>174.0</ele><time>2026-03-26T08:28:48.233Z</time></trkpt><trkpt lat="38.2252483" lon="15.4852109"><ele>174.0</ele><time>2026-03-26T08:28:50.233Z</time></trkpt><trkpt lat="38.2251856" lon="15.4853317"><ele>174.0</ele><time>2026-03-26T08:28:52.233Z</time></trkpt><trkpt lat="38.2251456" lon="15.4854032"><ele>174.0</ele><time>2026-03-26T08:28:54.232Z</time></trkpt><trkpt lat="38.2251805" lon="15.4853246"><ele>174.0</ele><time>2026-03-26T08:29:26.233Z</time></trkpt><trkpt lat="38.225138" lon="15.4854036"><ele>174.0</ele><time>2026-03-26T08:31:43.233Z</time></trkpt><trkpt lat="38.2250994" lon="15.4854754"><ele>174.0</ele><time>2026-03-26T08:31:46.233Z</time></trkpt><trkpt lat="38.2250604" lon="15.4855552"><ele>174.0</ele><time>2026-03-26T08:31:51.233Z</time></trkpt><trkpt lat="38.2250082" lon="15.485619"><ele>174.0</ele><time>2026-03-26T08:32:00.234Z</time></trkpt><trkpt lat="38.2249836" lon="15.485703"><ele>174.0</ele><time>2026-03-26T08:32:04.233Z</time></trkpt><trkpt lat="38.2249497" lon="15.4857797"><ele>174.0</ele><time>2026-03-26T08:32:18.233Z</time></trkpt><trkpt lat="38.2249138" lon="15.4858537"><ele>174.0</ele><time>2026-03-26T08:32:20.233Z</time></trkpt><trkpt lat="38.2248612" lon="15.4859303"><ele>174.0</ele><time>2026-03-26T08:32:22.233Z</time></trkpt><trkpt lat="38.2247973" lon="15.4860082"><ele>174.0</ele><time>2026-03-26T08:32:24.233Z</time></trkpt><trkpt lat="38.224735" lon="15.4861029"><ele>176.2</ele><time>2026-03-26T08:32:26.233Z</time></trkpt><trkpt lat="38.2246807" lon="15.486219"><ele>178.39999999999998</ele><time>2026-03-26T08:32:28.233Z</time></trkpt><trkpt lat="38.2246329" lon="15.4863508"><ele>180.6</ele><time>2026-03-26T08:32:30.233Z</time></trkpt><trkpt lat="38.2245804" lon="15.4864775"><ele>182.8</ele><time>2026-03-26T08:32:32.233Z</time></trkpt><trkpt lat="38.2245248" lon="15.4866081"><ele>185.0</ele><time>2026-03-26T08:32:34.233Z</time></trkpt><trkpt lat="38.2244881" lon="15.4866808"><ele>185.0</ele><time>2026-03-26T08:32:35.233Z</time></trkpt><trkpt lat="38.2244554" lon="15.4867582"><ele>185.0</ele><time>2026-03-26T08:32:36.233Z</time></trkpt><trkpt lat="38.2244227" lon="15.4868375"><ele>185.0</ele><time>2026-03-26T08:32:37.233Z</time></trkpt><trkpt lat="38.2243713" lon="15.486965"><ele>185.0</ele><time>2026-03-26T08:32:39.233Z</time></trkpt><trkpt lat="38.2243191" lon="15.4870957"><ele>185.0</ele><time>2026-03-26T08:32:41.233Z</time></trkpt><trkpt lat="38.2242639" lon="15.487239"><ele>185.25</ele><time>2026-03-26T08:32:43.233Z</time></trkpt><trkpt lat="38.2242017" lon="15.4873732"><ele>185.5</ele><time>2026-03-26T08:32:45.233Z</time></trkpt><trkpt lat="38.2241378" lon="15.4875039"><ele>185.75</ele><time>2026-03-26T08:32:47.233Z</time></trkpt><trkpt lat="38.2240758" lon="15.4876381"><ele>186.0</ele><time>2026-03-26T08:32:49.233Z</time></trkpt><trkpt lat="38.2240167" lon="15.4877628"><ele>188.20000000000002</ele><time>2026-03-26T08:32:51.233Z</time></trkpt><trkpt lat="38.2239617" lon="15.4878684"><ele>190.4</ele><time>2026-03-26T08:32:53.233Z</time></trkpt><trkpt lat="38.2238998" lon="15.4879644"><ele>192.6</ele><time>2026-03-26T08:32:55.233Z</time></trkpt><trkpt lat="38.2238467" lon="15.4880466"><ele>194.8</ele><time>2026-03-26T08:32:57.233Z</time></trkpt><trkpt lat="38.2238073" lon="15.4881594"><ele>197.0</ele><time>2026-03-26T08:32:59.233Z</time></trkpt><trkpt lat="38.2237405" lon="15.4882407"><ele>197.0</ele><time>2026-03-26T08:33:01.233Z</time></trkpt><trkpt lat="38.2236581" lon="15.4883198"><ele>197.0</ele><time>2026-03-26T08:33:03.233Z</time></trkpt><trkpt lat="38.2235629" lon="15.4883872"><ele>197.0</ele><time>2026-03-26T08:33:05.233Z</time></trkpt><trkpt lat="38.2234729" lon="15.4883769"><ele>197.0</ele><time>2026-03-26T08:33:07.232Z</time></trkpt><trkpt lat="38.2234184" lon="15.4883358"><ele>197.0</ele><time>2026-03-26T08:33:08.233Z</time></trkpt><trkpt lat="38.2233059" lon="15.4883362"><ele>197.0</ele><time>2026-03-26T08:33:10.233Z</time></trkpt><trkpt lat="38.2231838" lon="15.4883375"><ele>197.0</ele><time>2026-03-26T08:33:12.234Z</time></trkpt><trkpt lat="38.2231168" lon="15.4883315"><ele>197.0</ele><time>2026-03-26T08:33:13.233Z</time></trkpt><trkpt lat="38.2230087" lon="15.4883438"><ele>197.0</ele><time>2026-03-26T08:33:15.233Z</time></trkpt><trkpt lat="38.2229002" lon="15.4883844"><ele>197.0</ele><time>2026-03-26T08:33:17.233Z</time></trkpt><trkpt lat="38.2227954" lon="15.4884259"><ele>198.6</ele><time>2026-03-26T08:33:19.233Z</time></trkpt><trkpt lat="38.2227226" lon="15.4885198"><ele>200.2</ele><time>2026-03-26T08:33:21.233Z</time></trkpt><trkpt lat="38.222704" lon="15.48864"><ele>201.8</ele><time>2026-03-26T08:33:23.233Z</time></trkpt><trkpt lat="38.2226826" lon="15.4887746"><ele>203.4</ele><time>2026-03-26T08:33:25.233Z</time></trkpt><trkpt lat="38.2226515" lon="15.4888985"><ele>205.0</ele><time>2026-03-26T08:33:27.233Z</time></trkpt><trkpt lat="38.2226078" lon="15.4890129"><ele>205.6</ele><time>2026-03-26T08:33:29.233Z</time></trkpt><trkpt lat="38.2225369" lon="15.4890783"><ele>206.2</ele><time>2026-03-26T08:33:31.233Z</time></trkpt><trkpt lat="38.2224621" lon="15.4891631"><ele>206.8</ele><time>2026-03-26T08:33:33.233Z</time></trkpt><trkpt lat="38.2223639" lon="15.4891894"><ele>207.4</ele><time>2026-03-26T08:33:35.233Z</time></trkpt><trkpt lat="38.2222581" lon="15.4891918"><ele>208.0</ele><time>2026-03-26T08:33:37.233Z</time></trkpt><trkpt lat="38.2221524" lon="15.4891897"><ele>208.5</ele><time>2026-03-26T08:33:39.233Z</time></trkpt><trkpt lat="38.2220327" lon="15.4891767"><ele>209.0</ele><time>2026-03-26T08:33:41.233Z</time></trkpt><trkpt lat="38.2219209" lon="15.4891356"><ele>209.5</ele><time>2026-03-26T08:33:43.233Z</time></trkpt><trkpt lat="38.2218136" lon="15.4890745"><ele>210.0</ele><time>2026-03-26T08:33:45.232Z</time></trkpt><trkpt lat="38.2217043" lon="15.4890449"><ele>210.0</ele><time>2026-03-26T08:33:47.233Z</time></trkpt><trkpt lat="38.2216006" lon="15.4890644"><ele>210.0</ele><time>2026-03-26T08:33:49.233Z</time></trkpt><trkpt lat="38.2214849" lon="15.4891224"><ele>210.0</ele><time>2026-03-26T08:33:51.233Z</time></trkpt><trkpt lat="38.2214175" lon="15.489162"><ele>210.0</ele><time>2026-03-26T08:33:52.233Z</time></trkpt><trkpt lat="38.2213494" lon="15.4892047"><ele>210.0</ele><time>2026-03-26T08:33:53.233Z</time></trkpt><trkpt lat="38.2212883" lon="15.4892296"><ele>210.0</ele><time>2026-03-26T08:33:54.233Z</time></trkpt><trkpt lat="38.2212231" lon="15.4892557"><ele>212.2</ele><time>2026-03-26T08:33:55.233Z</time></trkpt><trkpt lat="38.221115" lon="15.4893238"><ele>214.4</ele><time>2026-03-26T08:33:57.233Z</time></trkpt><trkpt lat="38.2210016" lon="15.4893958"><ele>216.60000000000002</ele><time>2026-03-26T08:33:59.233Z</time></trkpt><trkpt lat="38.2208739" lon="15.4894528"><ele>218.8</ele><time>2026-03-26T08:34:01.233Z</time></trkpt><trkpt lat="38.2208092" lon="15.4894491"><ele>221.0</ele><time>2026-03-26T08:34:02.233Z</time></trkpt><trkpt lat="38.2207466" lon="15.4894832"><ele>221.0</ele><time>2026-03-26T08:34:04.233Z</time></trkpt><trkpt lat="38.2206603" lon="15.4895337"><ele>221.00000000000003</ele><time>2026-03-26T08:34:06.233Z</time></trkpt><trkpt lat="38.2205559" lon="15.4895785"><ele>221.00000000000003</ele><time>2026-03-26T08:34:08.233Z</time></trkpt><trkpt lat="38.2204377" lon="15.4896038"><ele>221.0</ele><time>2026-03-26T08:34:10.233Z</time></trkpt><trkpt lat="38.2203186" lon="15.4896468"><ele>221.0</ele><time>2026-03-26T08:34:12.233Z</time></trkpt><trkpt lat="38.2202561" lon="15.4896754"><ele>225.5</ele><time>2026-03-26T08:34:13.233Z</time></trkpt><trkpt lat="38.2201412" lon="15.4897255"><ele>230.0</ele><time>2026-03-26T08:34:15.233Z</time></trkpt><trkpt lat="38.2200286" lon="15.4897575"><ele>234.5</ele><time>2026-03-26T08:34:17.233Z</time></trkpt><trkpt lat="38.2199151" lon="15.4897491"><ele>239.0</ele><time>2026-03-26T08:34:19.233Z</time></trkpt><trkpt lat="38.2197979" lon="15.4897354"><ele>239.0</ele><time>2026-03-26T08:34:21.233Z</time></trkpt><trkpt lat="38.2196782" lon="15.4897578"><ele>238.99999999999997</ele><time>2026-03-26T08:34:23.233Z</time></trkpt><trkpt lat="38.219553" lon="15.4897963"><ele>238.99999999999997</ele><time>2026-03-26T08:34:25.233Z</time></trkpt><trkpt lat="38.2194906" lon="15.4898335"><ele>239.0</ele><time>2026-03-26T08:34:26.232Z</time></trkpt><trkpt lat="38.2194272" lon="15.4898672"><ele>239.0</ele><time>2026-03-26T08:34:27.233Z</time></trkpt><trkpt lat="38.2193683" lon="15.4899072"><ele>239.0</ele><time>2026-03-26T08:34:28.233Z</time></trkpt><trkpt lat="38.2192673" lon="15.4899757"><ele>238.99999999999997</ele><time>2026-03-26T08:34:30.233Z</time></trkpt><trkpt lat="38.2191684" lon="15.4899736"><ele>238.99999999999997</ele><time>2026-03-26T08:34:32.233Z</time></trkpt><trkpt lat="38.2190754" lon="15.4899559"><ele>239.0</ele><time>2026-03-26T08:34:34.233Z</time></trkpt><trkpt lat="38.2189731" lon="15.4899151"><ele>239.0</ele><time>2026-03-26T08:34:36.233Z</time></trkpt><trkpt lat="38.218856" lon="15.4898905"><ele>240.00000000000003</ele><time>2026-03-26T08:34:38.232Z</time></trkpt><trkpt lat="38.2187806" lon="15.4898994"><ele>241.0</ele><time>2026-03-26T08:34:40.233Z</time></trkpt><trkpt lat="38.2187083" lon="15.4899019"><ele>242.00000000000003</ele><time>2026-03-26T08:38:29.233Z</time></trkpt><trkpt lat="38.2186348" lon="15.4898898"><ele>243.00000000000003</ele><time>2026-03-26T08:38:31.233Z</time></trkpt><trkpt lat="38.218554" lon="15.4898868"><ele>244.0</ele><time>2026-03-26T08:38:34.233Z</time></trkpt><trkpt lat="38.2184964" lon="15.4899204"><ele>245.00000000000003</ele><time>2026-03-26T08:38:37.233Z</time></trkpt><trkpt lat="38.2184746" lon="15.4900058"><ele>246.00000000000003</ele><time>2026-03-26T08:38:40.233Z</time></trkpt><trkpt lat="38.2185034" lon="15.4901078"><ele>246.0</ele><time>2026-03-26T08:38:42.233Z</time></trkpt><trkpt lat="38.2185177" lon="15.4902136"><ele>246.00000000000003</ele><time>2026-03-26T08:38:44.232Z</time></trkpt><trkpt lat="38.2185272" lon="15.4903152"><ele>246.00000000000003</ele><time>2026-03-26T08:38:47.233Z</time></trkpt><trkpt lat="38.2185145" lon="15.4904161"><ele>246.0</ele><time>2026-03-26T08:51:40.233Z</time></trkpt><trkpt lat="38.218495" lon="15.4905257"><ele>246.0</ele><time>2026-03-26T08:51:42.232Z</time></trkpt><trkpt lat="38.2184762" lon="15.490681"><ele>249.4</ele><time>2026-03-26T08:51:44.233Z</time></trkpt><trkpt lat="38.2184806" lon="15.490792"><ele>252.8</ele><time>2026-03-26T08:51:45.233Z</time></trkpt><trkpt lat="38.2184683" lon="15.4909261"><ele>256.20000000000005</ele><time>2026-03-26T08:51:47.233Z</time></trkpt><trkpt lat="38.2184338" lon="15.4910625"><ele>259.6</ele><time>2026-03-26T08:51:49.233Z</time></trkpt><trkpt lat="38.2184287" lon="15.4911503"><ele>263.0</ele><time>2026-03-26T08:51:50.234Z</time></trkpt><trkpt lat="38.2183824" lon="15.4912786"><ele>264.33333333333337</ele><time>2026-03-26T08:51:52.233Z</time></trkpt><trkpt lat="38.2183704" lon="15.4914211"><ele>265.6666666666667</ele><time>2026-03-26T08:51:54.233Z</time></trkpt><trkpt lat="38.2183811" lon="15.4915082"><ele>267.0</ele><time>2026-03-26T08:51:56.233Z</time></trkpt><trkpt lat="38.2184537" lon="15.4915211"><ele>268.3333333333333</ele><time>2026-03-26T08:51:57.233Z</time></trkpt><trkpt lat="38.2185337" lon="15.4915386"><ele>269.66666666666663</ele><time>2026-03-26T08:51:59.234Z</time></trkpt><trkpt lat="38.2185939" lon="15.4915077"><ele>271.0</ele><time>2026-03-26T08:52:02.233Z</time></trkpt><trkpt lat="38.218659" lon="15.4914848"><ele>271.0</ele><time>2026-03-26T08:52:12.233Z</time></trkpt><trkpt lat="38.2187395" lon="15.4914032"><ele>271.0</ele><time>2026-03-26T08:52:15.233Z</time></trkpt><trkpt lat="38.218763" lon="15.4913042"><ele>271.0</ele><time>2026-03-26T08:52:16.233Z</time></trkpt><trkpt lat="38.218829" lon="15.4911739"><ele>271.0</ele><time>2026-03-26T08:52:18.233Z</time></trkpt><trkpt lat="38.2188807" lon="15.4910634"><ele>271.0</ele><time>2026-03-26T08:52:20.232Z</time></trkpt><trkpt lat="38.2189359" lon="15.4909451"><ele>269.66666666666663</ele><time>2026-03-26T08:52:22.233Z</time></trkpt><trkpt lat="38.2189422" lon="15.4908475"><ele>268.3333333333333</ele><time>2026-03-26T08:52:24.233Z</time></trkpt><trkpt lat="38.2189844" lon="15.4907619"><ele>267.0</ele><time>2026-03-26T08:52:26.233Z</time></trkpt><trkpt lat="38.2190417" lon="15.4906954"><ele>265.6666666666667</ele><time>2026-03-26T08:52:28.233Z</time></trkpt><trkpt lat="38.2191087" lon="15.490677"><ele>264.33333333333337</ele><time>2026-03-26T08:52:30.233Z</time></trkpt><trkpt lat="38.2191882" lon="15.4907152"><ele>263.0</ele><time>2026-03-26T08:52:31.233Z</time></trkpt><trkpt lat="38.2192915" lon="15.4907027"><ele>262.6</ele><time>2026-03-26T08:52:33.233Z</time></trkpt><trkpt lat="38.2193766" lon="15.4906715"><ele>262.20000000000005</ele><time>2026-03-26T08:52:35.233Z</time></trkpt><trkpt lat="38.2194764" lon="15.4907046"><ele>261.8</ele><time>2026-03-26T08:52:38.233Z</time></trkpt><trkpt lat="38.2195475" lon="15.4907405"><ele>261.40000000000003</ele><time>2026-03-26T08:52:40.233Z</time></trkpt><trkpt lat="38.2196378" lon="15.4907548"><ele>261.0</ele><time>2026-03-26T08:52:49.233Z</time></trkpt><trkpt lat="38.2197444" lon="15.4907714"><ele>262.40000000000003</ele><time>2026-03-26T08:52:51.233Z</time></trkpt><trkpt lat="38.2198194" lon="15.4907849"><ele>263.8</ele><time>2026-03-26T08:52:52.233Z</time></trkpt><trkpt lat="38.2198775" lon="15.4907397"><ele>265.20000000000005</ele><time>2026-03-26T08:52:53.233Z</time></trkpt><trkpt lat="38.22001" lon="15.4906883"><ele>266.6</ele><time>2026-03-26T08:52:55.233Z</time></trkpt><trkpt lat="38.2200686" lon="15.4906476"><ele>268.0</ele><time>2026-03-26T08:52:56.233Z</time></trkpt><trkpt lat="38.2201718" lon="15.4906098"><ele>268.0</ele><time>2026-03-26T08:52:58.233Z</time></trkpt><trkpt lat="38.2202599" lon="15.4906831"><ele>268.0</ele><time>2026-03-26T08:53:00.233Z</time></trkpt><trkpt lat="38.2203073" lon="15.4907773"><ele>268.0</ele><time>2026-03-26T08:53:02.233Z</time></trkpt><trkpt lat="38.2202726" lon="15.4908926"><ele>268.0</ele><time>2026-03-26T08:53:04.233Z</time></trkpt><trkpt lat="38.2202083" lon="15.4910242"><ele>268.0</ele><time>2026-03-26T08:53:06.232Z</time></trkpt><trkpt lat="38.2201905" lon="15.4911032"><ele>268.0</ele><time>2026-03-26T08:53:07.233Z</time></trkpt><trkpt lat="38.2201275" lon="15.4912259"><ele>268.0</ele><time>2026-03-26T08:53:09.233Z</time></trkpt><trkpt lat="38.2201136" lon="15.4913402"><ele>268.0</ele><time>2026-03-26T08:53:11.233Z</time></trkpt><trkpt lat="38.2201301" lon="15.4914248"><ele>268.0</ele><time>2026-03-26T08:53:12.233Z</time></trkpt><trkpt lat="38.2201366" lon="15.4915121"><ele>268.0</ele><time>2026-03-26T08:53:13.233Z</time></trkpt><trkpt lat="38.2201265" lon="15.4916057"><ele>268.0</ele><time>2026-03-26T08:53:15.233Z</time></trkpt><trkpt lat="38.220079" lon="15.4917237"><ele>272.0</ele><time>2026-03-26T08:53:17.232Z</time></trkpt><trkpt lat="38.2200495" lon="15.4918182"><ele>276.0</ele><time>2026-03-26T08:53:19.233Z</time></trkpt><trkpt lat="38.2200507" lon="15.4919897"><ele>280.0</ele><time>2026-03-26T08:53:21.233Z</time></trkpt><trkpt lat="38.2200725" lon="15.4921112"><ele>284.0</ele><time>2026-03-26T08:53:23.232Z</time></trkpt><trkpt lat="38.2200855" lon="15.4922362"><ele>288.0</ele><time>2026-03-26T08:53:25.232Z</time></trkpt><trkpt lat="38.220105" lon="15.4923309"><ele>289.1666666666667</ele><time>2026-03-26T08:53:27.233Z</time></trkpt><trkpt lat="38.2200815" lon="15.4924431"><ele>290.3333333333333</ele><time>2026-03-26T08:53:29.233Z</time></trkpt><trkpt lat="38.2200589" lon="15.4925533"><ele>291.5</ele><time>2026-03-26T08:53:30.232Z</time></trkpt><trkpt lat="38.2200479" lon="15.4926575"><ele>292.66666666666663</ele><time>2026-03-26T08:53:31.233Z</time></trkpt><trkpt lat="38.2200418" lon="15.4927517"><ele>293.8333333333333</ele><time>2026-03-26T08:53:32.232Z</time></trkpt><trkpt lat="38.2200362" lon="15.492875"><ele>295.0</ele><time>2026-03-26T08:53:33.233Z</time></trkpt><trkpt lat="38.2200334" lon="15.4929767"><ele>297.0</ele><time>2026-03-26T08:53:34.233Z</time></trkpt><trkpt lat="38.2200923" lon="15.4930742"><ele>299.0</ele><time>2026-03-26T08:53:36.233Z</time></trkpt><trkpt lat="38.2201178" lon="15.4931591"><ele>301.0</ele><time>2026-03-26T08:53:37.233Z</time></trkpt><trkpt lat="38.2201094" lon="15.4932723"><ele>303.0</ele><time>2026-03-26T08:53:39.233Z</time></trkpt><trkpt lat="38.2201108" lon="15.4933787"><ele>305.0</ele><time>2026-03-26T08:53:41.233Z</time></trkpt><trkpt lat="38.2201683" lon="15.4934905"><ele>307.0</ele><time>2026-03-26T08:53:43.233Z</time></trkpt><trkpt lat="38.220224" lon="15.4935907"><ele>307.0</ele><time>2026-03-26T08:53:45.233Z</time></trkpt><trkpt lat="38.2203016" lon="15.493622"><ele>307.0</ele><time>2026-03-26T08:53:47.233Z</time></trkpt><trkpt lat="38.220395" lon="15.4936662"><ele>307.0</ele><time>2026-03-26T08:53:49.232Z</time></trkpt><trkpt lat="38.2204584" lon="15.493677"><ele>307.0</ele><time>2026-03-26T08:53:50.233Z</time></trkpt><trkpt lat="38.2205287" lon="15.4936765"><ele>307.0</ele><time>2026-03-26T08:53:54.232Z</time></trkpt><trkpt lat="38.2206037" lon="15.4936588"><ele>307.0</ele><time>2026-03-26T08:54:02.233Z</time></trkpt><trkpt lat="38.2206786" lon="15.4936516"><ele>306.71428571428567</ele><time>2026-03-26T08:54:06.233Z</time></trkpt><trkpt lat="38.2207359" lon="15.4937047"><ele>306.42857142857144</ele><time>2026-03-26T08:54:11.233Z</time></trkpt><trkpt lat="38.2206963" lon="15.4937741"><ele>306.1428571428571</ele><time>2026-03-26T08:54:37.233Z</time></trkpt><trkpt lat="38.2206282" lon="15.4937828"><ele>305.85714285714283</ele><time>2026-03-26T08:54:40.233Z</time></trkpt><trkpt lat="38.2205431" lon="15.4937986"><ele>305.57142857142856</ele><time>2026-03-26T08:54:42.233Z</time></trkpt><trkpt lat="38.2204645" lon="15.4938226"><ele>305.2857142857143</ele><time>2026-03-26T08:54:44.233Z</time></trkpt><trkpt lat="38.2203985" lon="15.493856"><ele>305.0</ele><time>2026-03-26T08:54:46.233Z</time></trkpt><trkpt lat="38.2203286" lon="15.4939251"><ele>307.5</ele><time>2026-03-26T08:54:48.233Z</time></trkpt><trkpt lat="38.2202328" lon="15.4939467"><ele>310.0</ele><time>2026-03-26T08:54:50.233Z</time></trkpt><trkpt lat="38.2201448" lon="15.4939968"><ele>312.5</ele><time>2026-03-26T08:54:52.233Z</time></trkpt><trkpt lat="38.2200598" lon="15.49392"><ele>315.0</ele><time>2026-03-26T08:54:54.233Z</time></trkpt><trkpt lat="38.2200022" lon="15.4938564"><ele>317.5</ele><time>2026-03-26T08:54:55.233Z</time></trkpt><trkpt lat="38.2199332" lon="15.4938384"><ele>320.0</ele><time>2026-03-26T08:54:57.233Z</time></trkpt><trkpt lat="38.2198636" lon="15.4939162"><ele>320.0</ele><time>2026-03-26T08:55:00.233Z</time></trkpt><trkpt lat="38.2199248" lon="15.4939981"><ele>320.0</ele><time>2026-03-26T08:55:03.233Z</time></trkpt><trkpt lat="38.2199916" lon="15.4940188"><ele>320.0</ele><time>2026-03-26T08:55:05.233Z</time></trkpt><trkpt lat="38.2200737" lon="15.4940259"><ele>320.0</ele><time>2026-03-26T08:55:08.232Z</time></trkpt><trkpt lat="38.2201566" lon="15.4940106"><ele>320.0</ele><time>2026-03-26T08:55:11.232Z</time></trkpt><trkpt lat="38.2202988" lon="15.49399"><ele>320.0</ele><time>2026-03-26T08:55:13.232Z</time></trkpt><trkpt lat="38.2204173" lon="15.4939845"><ele>320.0</ele><time>2026-03-26T08:55:15.233Z</time></trkpt><trkpt lat="38.2205306" lon="15.4940014"><ele>320.0</ele><time>2026-03-26T08:55:17.233Z</time></trkpt><trkpt lat="38.2206066" lon="15.4940137"><ele>320.0</ele><time>2026-03-26T08:55:18.233Z</time></trkpt><trkpt lat="38.2206975" lon="15.4940377"><ele>320.0</ele><time>2026-03-26T08:55:20.233Z</time></trkpt><trkpt lat="38.2207702" lon="15.4941121"><ele>320.2</ele><time>2026-03-26T08:55:22.233Z</time></trkpt><trkpt lat="38.2208346" lon="15.494204"><ele>320.4</ele><time>2026-03-26T08:55:24.234Z</time></trkpt><trkpt lat="38.2209005" lon="15.4943075"><ele>320.6</ele><time>2026-03-26T08:55:26.233Z</time></trkpt><trkpt lat="38.2209629" lon="15.4944336"><ele>320.8</ele><time>2026-03-26T08:55:28.233Z</time></trkpt><trkpt lat="38.2209985" lon="15.4945296"><ele>321.0</ele><time>2026-03-26T08:55:31.233Z</time></trkpt><trkpt lat="38.2210081" lon="15.4946128"><ele>321.0</ele><time>2026-03-26T08:55:57.232Z</time></trkpt><trkpt lat="38.2210234" lon="15.4947022"><ele>321.0</ele><time>2026-03-26T08:55:59.233Z</time></trkpt><trkpt lat="38.2210835" lon="15.4947578"><ele>321.0</ele><time>2026-03-26T08:56:00.232Z</time></trkpt><trkpt lat="38.2211334" lon="15.4948459"><ele>321.0</ele><time>2026-03-26T08:56:02.233Z</time></trkpt><trkpt lat="38.2211627" lon="15.494936"><ele>321.0</ele><time>2026-03-26T08:56:04.233Z</time></trkpt><trkpt lat="38.2211376" lon="15.4950374"><ele>321.0</ele><time>2026-03-26T08:56:06.233Z</time></trkpt><trkpt lat="38.2211102" lon="15.4951271"><ele>321.0</ele><time>2026-03-26T08:56:08.232Z</time></trkpt><trkpt lat="38.2211" lon="15.4952444"><ele>321.0</ele><time>2026-03-26T08:56:10.233Z</time></trkpt><trkpt lat="38.2210659" lon="15.4953297"><ele>321.0</ele><time>2026-03-26T08:56:12.233Z</time></trkpt><trkpt lat="38.2209592" lon="15.4953693"><ele>321.0</ele><time>2026-03-26T08:56:15.233Z</time></trkpt><trkpt lat="38.220887" lon="15.4954385"><ele>321.0</ele><time>2026-03-26T08:56:17.233Z</time></trkpt><trkpt lat="38.2207831" lon="15.4954448"><ele>320.6</ele><time>2026-03-26T08:56:19.233Z</time></trkpt><trkpt lat="38.2206544" lon="15.4954616"><ele>320.20000000000005</ele><time>2026-03-26T08:56:21.233Z</time></trkpt><trkpt lat="38.2205523" lon="15.4954868"><ele>319.79999999999995</ele><time>2026-03-26T08:56:23.233Z</time></trkpt><trkpt lat="38.220491" lon="15.495549"><ele>319.4</ele><time>2026-03-26T08:56:25.233Z</time></trkpt><trkpt lat="38.220418" lon="15.4956035"><ele>319.0</ele><time>2026-03-26T08:56:27.233Z</time></trkpt><trkpt lat="38.2203443" lon="15.4955686"><ele>319.0</ele><time>2026-03-26T08:56:28.233Z</time></trkpt><trkpt lat="38.2202408" lon="15.4955229"><ele>319.0</ele><time>2026-03-26T08:56:30.233Z</time></trkpt><trkpt lat="38.2201683" lon="15.495468"><ele>319.0</ele><time>2026-03-26T08:56:32.233Z</time></trkpt><trkpt lat="38.2201272" lon="15.495378"><ele>319.0</ele><time>2026-03-26T08:56:33.233Z</time></trkpt><trkpt lat="38.220036" lon="15.4953088"><ele>319.0</ele><time>2026-03-26T08:56:35.233Z</time></trkpt><trkpt lat="38.2199291" lon="15.4952088"><ele>321.79999999999995</ele><time>2026-03-26T08:56:36.233Z</time></trkpt><trkpt lat="38.2198484" lon="15.4951538"><ele>324.59999999999997</ele><time>2026-03-26T08:56:38.234Z</time></trkpt><trkpt lat="38.2197526" lon="15.4951242"><ele>327.4</ele><time>2026-03-26T08:56:40.233Z</time></trkpt><trkpt lat="38.2196506" lon="15.4951774"><ele>330.2</ele><time>2026-03-26T08:56:43.233Z</time></trkpt><trkpt lat="38.2195421" lon="15.4952374"><ele>333.0</ele><time>2026-03-26T08:56:45.234Z</time></trkpt><trkpt lat="38.2194787" lon="15.4953455"><ele>334.4</ele><time>2026-03-26T08:56:47.233Z</time></trkpt><trkpt lat="38.2193731" lon="15.4954085"><ele>335.79999999999995</ele><time>2026-03-26T08:56:49.233Z</time></trkpt><trkpt lat="38.2192614" lon="15.4954684"><ele>337.2</ele><time>2026-03-26T08:56:51.233Z</time></trkpt><trkpt lat="38.2192022" lon="15.4955359"><ele>338.6</ele><time>2026-03-26T08:56:52.233Z</time></trkpt><trkpt lat="38.219159" lon="15.495624"><ele>340.0</ele><time>2026-03-26T08:56:53.234Z</time></trkpt><trkpt lat="38.2191171" lon="15.4956966"><ele>341.2</ele><time>2026-03-26T08:56:54.233Z</time></trkpt><trkpt lat="38.2190801" lon="15.4957704"><ele>342.4</ele><time>2026-03-26T08:56:55.233Z</time></trkpt><trkpt lat="38.2190149" lon="15.4958255"><ele>343.6</ele><time>2026-03-26T08:56:57.233Z</time></trkpt><trkpt lat="38.2189506" lon="15.4959238"><ele>344.8</ele><time>2026-03-26T08:56:59.233Z</time></trkpt><trkpt lat="38.2188722" lon="15.4959979"><ele>346.0</ele><time>2026-03-26T08:57:01.232Z</time></trkpt><trkpt lat="38.2187668" lon="15.4960849"><ele>349.8</ele><time>2026-03-26T08:57:03.233Z</time></trkpt><trkpt lat="38.2187034" lon="15.4961397"><ele>353.6</ele><time>2026-03-26T08:57:04.233Z</time></trkpt><trkpt lat="38.2186109" lon="15.4962302"><ele>357.4</ele><time>2026-03-26T08:57:06.233Z</time></trkpt><trkpt lat="38.2185179" lon="15.496307"><ele>361.2</ele><time>2026-03-26T08:57:08.233Z</time></trkpt><trkpt lat="38.2184141" lon="15.4963651"><ele>365.0</ele><time>2026-03-26T08:57:10.233Z</time></trkpt><trkpt lat="38.2183379" lon="15.496421"><ele>365.0</ele><time>2026-03-26T08:57:12.233Z</time></trkpt><trkpt lat="38.2182737" lon="15.4965108"><ele>365.0</ele><time>2026-03-26T08:57:14.233Z</time></trkpt><trkpt lat="38.2182177" lon="15.4966303"><ele>365.0</ele><time>2026-03-26T08:57:16.233Z</time></trkpt><trkpt lat="38.2181888" lon="15.4967177"><ele>365.0</ele><time>2026-03-26T08:57:18.232Z</time></trkpt><trkpt lat="38.2181426" lon="15.4967844"><ele>365.0</ele><time>2026-03-26T08:57:20.233Z</time></trkpt><trkpt lat="38.2180434" lon="15.4967889"><ele>365.0</ele><time>2026-03-26T08:57:21.233Z</time></trkpt><trkpt lat="38.2179254" lon="15.496807"><ele>369.2</ele><time>2026-03-26T08:57:23.232Z</time></trkpt><trkpt lat="38.2178562" lon="15.4968209"><ele>373.4</ele><time>2026-03-26T08:57:24.233Z</time></trkpt><trkpt lat="38.2178135" lon="15.496952"><ele>377.6</ele><time>2026-03-26T08:57:26.233Z</time></trkpt><trkpt lat="38.2178731" lon="15.4970815"><ele>381.8</ele><time>2026-03-26T08:57:28.233Z</time></trkpt><trkpt lat="38.2178537" lon="15.4971825"><ele>386.0</ele><time>2026-03-26T08:57:30.232Z</time></trkpt><trkpt lat="38.217807" lon="15.497267"><ele>385.99999999999994</ele><time>2026-03-26T08:57:32.233Z</time></trkpt><trkpt lat="38.2177624" lon="15.4973243"><ele>386.0</ele><time>2026-03-26T08:57:33.233Z</time></trkpt><trkpt lat="38.2176728" lon="15.4974061"><ele>386.0</ele><time>2026-03-26T08:57:35.233Z</time></trkpt><trkpt lat="38.2176058" lon="15.4974815"><ele>386.0</ele><time>2026-03-26T08:57:37.233Z</time></trkpt><trkpt lat="38.2175244" lon="15.4975164"><ele>385.99999999999994</ele><time>2026-03-26T08:57:39.233Z</time></trkpt><trkpt lat="38.217476" lon="15.497587"><ele>386.0</ele><time>2026-03-26T08:57:41.233Z</time></trkpt><trkpt lat="38.2174401" lon="15.497689"><ele>385.99999999999994</ele><time>2026-03-26T08:57:43.233Z</time></trkpt><trkpt lat="38.2173953" lon="15.4977669"><ele>386.0</ele><time>2026-03-26T08:57:45.233Z</time></trkpt><trkpt lat="38.2173408" lon="15.4978332"><ele>386.0</ele><time>2026-03-26T08:57:48.233Z</time></trkpt><trkpt lat="38.2172895" lon="15.4979005"><ele>386.0</ele><time>2026-03-26T08:57:52.233Z</time></trkpt><trkpt lat="38.2172201" lon="15.4979519"><ele>385.99999999999994</ele><time>2026-03-26T08:57:55.233Z</time></trkpt><trkpt lat="38.2171538" lon="15.4980112"><ele>386.0</ele><time>2026-03-26T08:58:01.233Z</time></trkpt><trkpt lat="38.2170782" lon="15.4980102"><ele>391.0</ele><time>2026-03-26T08:58:03.233Z</time></trkpt><trkpt lat="38.2170109" lon="15.4980202"><ele>396.0</ele><time>2026-03-26T08:58:05.233Z</time></trkpt><trkpt lat="38.216963" lon="15.4980849"><ele>401.0</ele><time>2026-03-26T08:58:07.233Z</time></trkpt><trkpt lat="38.2169537" lon="15.4981668"><ele>406.0</ele><time>2026-03-26T08:58:13.233Z</time></trkpt><trkpt lat="38.2170902" lon="15.4982491"><ele>411.0</ele><time>2026-03-26T08:58:24.233Z</time></trkpt><trkpt lat="38.2171774" lon="15.4983262"><ele>411.0</ele><time>2026-03-26T08:58:26.233Z</time></trkpt><trkpt lat="38.2172174" lon="15.4983896"><ele>411.0</ele><time>2026-03-26T08:58:28.233Z</time></trkpt><trkpt lat="38.2172757" lon="15.4984552"><ele>411.0</ele><time>2026-03-26T08:58:29.233Z</time></trkpt><trkpt lat="38.2173503" lon="15.4985274"><ele>411.0</ele><time>2026-03-26T08:58:31.233Z</time></trkpt><trkpt lat="38.2174447" lon="15.4985932"><ele>411.0</ele><time>2026-03-26T08:58:33.233Z</time></trkpt><trkpt lat="38.2174646" lon="15.498684"><ele>411.0</ele><time>2026-03-26T08:58:36.233Z</time></trkpt><trkpt lat="38.2174601" lon="15.4987674"><ele>408.4</ele><time>2026-03-26T08:58:38.233Z</time></trkpt><trkpt lat="38.2174716" lon="15.4989618"><ele>405.8</ele><time>2026-03-26T08:58:40.233Z</time></trkpt><trkpt lat="38.2174931" lon="15.4990432"><ele>403.2</ele><time>2026-03-26T08:58:41.233Z</time></trkpt><trkpt lat="38.2174482" lon="15.4991539"><ele>400.59999999999997</ele><time>2026-03-26T08:58:43.233Z</time></trkpt><trkpt lat="38.2174325" lon="15.4992838"><ele>398.0</ele><time>2026-03-26T08:58:45.233Z</time></trkpt><trkpt lat="38.217369" lon="15.4994001"><ele>398.0</ele><time>2026-03-26T08:58:47.233Z</time></trkpt><trkpt lat="38.2173354" lon="15.4994702"><ele>398.0</ele><time>2026-03-26T08:58:48.233Z</time></trkpt><trkpt lat="38.217293" lon="15.4995975"><ele>398.0</ele><time>2026-03-26T08:58:50.233Z</time></trkpt><trkpt lat="38.2172322" lon="15.4996965"><ele>398.0</ele><time>2026-03-26T08:58:52.233Z</time></trkpt><trkpt lat="38.2171535" lon="15.499825"><ele>398.0</ele><time>2026-03-26T08:58:54.233Z</time></trkpt><trkpt lat="38.2170917" lon="15.4999424"><ele>404.4</ele><time>2026-03-26T08:58:56.233Z</time></trkpt><trkpt lat="38.2170431" lon="15.5000188"><ele>410.79999999999995</ele><time>2026-03-26T08:58:57.233Z</time></trkpt><trkpt lat="38.2169905" lon="15.5000968"><ele>417.2</ele><time>2026-03-26T08:58:58.233Z</time></trkpt><trkpt lat="38.2169426" lon="15.500195"><ele>423.6</ele><time>2026-03-26T08:58:59.233Z</time></trkpt><trkpt lat="38.2168853" lon="15.5002844"><ele>430.0</ele><time>2026-03-26T08:59:00.233Z</time></trkpt><trkpt lat="38.2168123" lon="15.5003915"><ele>429.33333333333337</ele><time>2026-03-26T08:59:02.233Z</time></trkpt><trkpt lat="38.2167751" lon="15.5004666"><ele>428.6666666666667</ele><time>2026-03-26T08:59:03.234Z</time></trkpt><trkpt lat="38.2166804" lon="15.5005239"><ele>428.0</ele><time>2026-03-26T08:59:04.233Z</time></trkpt><trkpt lat="38.2166508" lon="15.5006139"><ele>427.33333333333337</ele><time>2026-03-26T08:59:05.232Z</time></trkpt><trkpt lat="38.2166067" lon="15.5006785"><ele>426.6666666666667</ele><time>2026-03-26T08:59:06.233Z</time></trkpt><trkpt lat="38.2165657" lon="15.5008315"><ele>426.0</ele><time>2026-03-26T08:59:08.233Z</time></trkpt><trkpt lat="38.2165813" lon="15.5009455"><ele>426.0</ele><time>2026-03-26T08:59:09.234Z</time></trkpt><trkpt lat="38.2166288" lon="15.5010384"><ele>426.0</ele><time>2026-03-26T08:59:10.233Z</time></trkpt><trkpt lat="38.2166463" lon="15.5011503"><ele>426.0</ele><time>2026-03-26T08:59:11.233Z</time></trkpt><trkpt lat="38.2166623" lon="15.5012343"><ele>426.0</ele><time>2026-03-26T08:59:12.233Z</time></trkpt><trkpt lat="38.2167079" lon="15.5013012"><ele>426.0</ele><time>2026-03-26T08:59:14.232Z</time></trkpt><trkpt lat="38.2166382" lon="15.5012341"><ele>426.0</ele><time>2026-03-26T08:59:42.232Z</time></trkpt><trkpt lat="38.2165998" lon="15.5011138"><ele>426.0</ele><time>2026-03-26T08:59:44.233Z</time></trkpt><trkpt lat="38.2165542" lon="15.5010288"><ele>426.0</ele><time>2026-03-26T08:59:46.233Z</time></trkpt><trkpt lat="38.2164693" lon="15.5010688"><ele>426.0</ele><time>2026-03-26T08:59:48.232Z</time></trkpt><trkpt lat="38.216432" lon="15.5011394"><ele>426.0</ele><time>2026-03-26T08:59:50.232Z</time></trkpt><trkpt lat="38.2164618" lon="15.5013823"><ele>426.0</ele><time>2026-03-26T08:59:52.233Z</time></trkpt><trkpt lat="38.2164558" lon="15.5014726"><ele>427.1666666666667</ele><time>2026-03-26T08:59:53.233Z</time></trkpt><trkpt lat="38.2164709" lon="15.5015767"><ele>428.33333333333337</ele><time>2026-03-26T08:59:54.233Z</time></trkpt><trkpt lat="38.2164743" lon="15.5016919"><ele>429.5</ele><time>2026-03-26T08:59:55.233Z</time></trkpt><trkpt lat="38.2164907" lon="15.5018084"><ele>430.6666666666667</ele><time>2026-03-26T08:59:56.233Z</time></trkpt><trkpt lat="38.2165142" lon="15.5019169"><ele>431.83333333333337</ele><time>2026-03-26T08:59:57.233Z</time></trkpt><trkpt lat="38.216538" lon="15.5020232"><ele>433.0</ele><time>2026-03-26T08:59:58.233Z</time></trkpt><trkpt lat="38.2165419" lon="15.5021258"><ele>433.0</ele><time>2026-03-26T08:59:59.233Z</time></trkpt><trkpt lat="38.2165522" lon="15.5022571"><ele>432.99999999999994</ele><time>2026-03-26T09:00:01.233Z</time></trkpt><trkpt lat="38.2165638" lon="15.5023425"><ele>432.99999999999994</ele><time>2026-03-26T09:00:03.233Z</time></trkpt><trkpt lat="38.2164794" lon="15.5023838"><ele>433.0</ele><time>2026-03-26T09:00:05.233Z</time></trkpt><trkpt lat="38.2164076" lon="15.5024155"><ele>433.0</ele><time>2026-03-26T09:00:07.233Z</time></trkpt><trkpt lat="38.2162904" lon="15.5024108"><ele>436.2</ele><time>2026-03-26T09:00:09.232Z</time></trkpt><trkpt lat="38.2162261" lon="15.5023916"><ele>439.4</ele><time>2026-03-26T09:00:11.233Z</time></trkpt><trkpt lat="38.2161031" lon="15.5024187"><ele>442.59999999999997</ele><time>2026-03-26T09:00:13.233Z</time></trkpt><trkpt lat="38.2159883" lon="15.5024251"><ele>445.79999999999995</ele><time>2026-03-26T09:00:15.233Z</time></trkpt><trkpt lat="38.2158555" lon="15.5024143"><ele>449.0</ele><time>2026-03-26T09:00:17.232Z</time></trkpt><trkpt lat="38.2157818" lon="15.5024114"><ele>448.99999999999994</ele><time>2026-03-26T09:00:18.233Z</time></trkpt><trkpt lat="38.2157078" lon="15.5024364"><ele>449.0</ele><time>2026-03-26T09:00:19.233Z</time></trkpt><trkpt lat="38.2156241" lon="15.5024465"><ele>449.0</ele><time>2026-03-26T09:00:20.233Z</time></trkpt><trkpt lat="38.2155197" lon="15.5024607"><ele>449.0</ele><time>2026-03-26T09:00:21.233Z</time></trkpt><trkpt lat="38.2154368" lon="15.5024958"><ele>448.99999999999994</ele><time>2026-03-26T09:00:22.233Z</time></trkpt><trkpt lat="38.2153487" lon="15.5025414"><ele>449.0</ele><time>2026-03-26T09:00:24.233Z</time></trkpt><trkpt lat="38.2152934" lon="15.5026031"><ele>450.0</ele><time>2026-03-26T09:00:25.233Z</time></trkpt><trkpt lat="38.2151879" lon="15.5026894"><ele>451.0</ele><time>2026-03-26T09:00:27.233Z</time></trkpt><trkpt lat="38.2150996" lon="15.5027628"><ele>452.0</ele><time>2026-03-26T09:00:29.232Z</time></trkpt><trkpt lat="38.2149988" lon="15.5028871"><ele>453.0</ele><time>2026-03-26T09:00:31.233Z</time></trkpt><trkpt lat="38.2149505" lon="15.5029605"><ele>454.0</ele><time>2026-03-26T09:00:32.234Z</time></trkpt><trkpt lat="38.2149084" lon="15.5030696"><ele>454.00000000000006</ele><time>2026-03-26T09:00:33.233Z</time></trkpt><trkpt lat="38.214863" lon="15.5031362"><ele>454.0</ele><time>2026-03-26T09:00:34.234Z</time></trkpt><trkpt lat="38.2148188" lon="15.5032041"><ele>454.0</ele><time>2026-03-26T09:00:35.233Z</time></trkpt><trkpt lat="38.2147761" lon="15.5032934"><ele>454.0</ele><time>2026-03-26T09:00:36.233Z</time></trkpt><trkpt lat="38.2147682" lon="15.5033775"><ele>454.00000000000006</ele><time>2026-03-26T09:00:37.233Z</time></trkpt><trkpt lat="38.2147609" lon="15.503511"><ele>454.0</ele><time>2026-03-26T09:00:39.233Z</time></trkpt><trkpt lat="38.2148287" lon="15.5036282"><ele>454.0</ele><time>2026-03-26T09:00:41.233Z</time></trkpt><trkpt lat="38.214895" lon="15.5036562"><ele>454.00000000000006</ele><time>2026-03-26T09:00:42.233Z</time></trkpt><trkpt lat="38.2149584" lon="15.5036754"><ele>454.0</ele><time>2026-03-26T09:00:43.233Z</time></trkpt><trkpt lat="38.2150293" lon="15.5036848"><ele>454.0</ele><time>2026-03-26T09:00:44.233Z</time></trkpt><trkpt lat="38.2150962" lon="15.503691"><ele>454.00000000000006</ele><time>2026-03-26T09:00:45.232Z</time></trkpt><trkpt lat="38.2151724" lon="15.5037173"><ele>454.0</ele><time>2026-03-26T09:00:46.233Z</time></trkpt><trkpt lat="38.2152385" lon="15.5037774"><ele>454.0</ele><time>2026-03-26T09:00:47.233Z</time></trkpt><trkpt lat="38.215302" lon="15.503821"><ele>457.6</ele><time>2026-03-26T09:00:48.233Z</time></trkpt><trkpt lat="38.2153647" lon="15.5038956"><ele>461.2</ele><time>2026-03-26T09:00:50.233Z</time></trkpt><trkpt lat="38.215376" lon="15.5040168"><ele>464.80000000000007</ele><time>2026-03-26T09:00:52.233Z</time></trkpt><trkpt lat="38.2153238" lon="15.5041469"><ele>468.40000000000003</ele><time>2026-03-26T09:00:54.233Z</time></trkpt><trkpt lat="38.2153052" lon="15.5042285"><ele>472.0</ele><time>2026-03-26T09:00:55.233Z</time></trkpt><trkpt lat="38.2153103" lon="15.5043525"><ele>472.0</ele><time>2026-03-26T09:00:56.233Z</time></trkpt><trkpt lat="38.2153064" lon="15.5044503"><ele>472.00000000000006</ele><time>2026-03-26T09:00:57.233Z</time></trkpt><trkpt lat="38.2153341" lon="15.5046031"><ele>472.00000000000006</ele><time>2026-03-26T09:00:58.233Z</time></trkpt><trkpt lat="38.2153853" lon="15.5047131"><ele>472.0</ele><time>2026-03-26T09:00:59.233Z</time></trkpt><trkpt lat="38.215423" lon="15.5048085"><ele>472.0</ele><time>2026-03-26T09:01:00.233Z</time></trkpt><trkpt lat="38.2154342" lon="15.5049103"><ele>487.0</ele><time>2026-03-26T09:01:02.233Z</time></trkpt><trkpt lat="38.2154508" lon="15.5050335"><ele>487.0</ele><time>2026-03-26T09:01:04.233Z</time></trkpt><trkpt lat="38.2154976" lon="15.5051152"><ele>487.0</ele><time>2026-03-26T09:01:05.232Z</time></trkpt><trkpt lat="38.2155402" lon="15.5051853"><ele>487.0</ele><time>2026-03-26T09:01:07.232Z</time></trkpt><trkpt lat="38.2155657" lon="15.5052641"><ele>487.0</ele><time>2026-03-26T09:01:08.233Z</time></trkpt><trkpt lat="38.2156145" lon="15.5054011"><ele>487.0</ele><time>2026-03-26T09:01:10.233Z</time></trkpt></trkseg><trkseg><trkpt lat="38.2156738" lon="15.5058362"><ele>472.0</ele><time>2026-03-26T09:15:51.365Z</time></trkpt><trkpt lat="38.2156455" lon="15.505762"><ele>472.0</ele><time>2026-03-26T09:17:01.235Z</time></trkpt><trkpt lat="38.2156742" lon="15.5058365"><ele>472.0</ele><time>2026-03-26T09:17:05.233Z</time></trkpt><trkpt lat="38.2156592" lon="15.5059216"><ele>472.0</ele><time>2026-03-26T09:17:12.234Z</time></trkpt><trkpt lat="38.2155989" lon="15.5059791"><ele>472.0</ele><time>2026-03-26T09:17:15.234Z</time></trkpt><trkpt lat="38.2155736" lon="15.5060712"><ele>472.0</ele><time>2026-03-26T09:17:36.234Z</time></trkpt><trkpt lat="38.2156456" lon="15.5060417"><ele>472.0</ele><time>2026-03-26T09:17:40.234Z</time></trkpt><trkpt lat="38.2155899" lon="15.505979"><ele>475.0</ele><time>2026-03-26T09:17:43.234Z</time></trkpt><trkpt lat="38.2155389" lon="15.505909"><ele>475.0</ele><time>2026-03-26T09:17:46.234Z</time></trkpt><trkpt lat="38.215518" lon="15.5058297"><ele>475.0</ele><time>2026-03-26T09:17:50.234Z</time></trkpt><trkpt lat="38.2155583" lon="15.5057303"><ele>475.0</ele><time>2026-03-26T09:18:13.234Z</time></trkpt><trkpt lat="38.215626" lon="15.5057223"><ele>475.0</ele><time>2026-03-26T09:18:16.234Z</time></trkpt></trkseg></trk></gpx>